<?xml version="1.0" encoding="UTF-8" standalone="no" ?>
<gpx xmlns="http://www.topografix.com/GPX/1/1" xmlns:xsi="http://www.w3.org/2001/XMLSchema-instance" xsi:schemaLocation="http://www.topografix.com/GPX/1/1 http://www.topografix.com/GPX/1/1/gpx.xsd" version="1.1" creator="VisuGPX - https://www.visugpx.com">
  <metadata>
    <name>64 - PEDESTRE - GR 108 de Gabas au pont de camps de Fabrèges</name>
    <desc><![CDATA[Contrôle et entretien du balisage en place ]]></desc>
  </metadata>
  <wpt lat="42.88691" lon="-0.42636">
    <ele>1042.667725</ele>
    <name><![CDATA[008]]></name>
    <desc><![CDATA[23-MAR-12 10:20:36]]></desc>
  </wpt>
  <wpt lat="42.88698" lon="-0.41456">
    <ele>1136.395508</ele>
    <name><![CDATA[009]]></name>
    <desc><![CDATA[23-MAR-12 10:40:26]]></desc>
  </wpt>
  <wpt lat="42.88465" lon="-0.40414">
    <ele>1192.151611</ele>
    <name><![CDATA[010]]></name>
    <desc><![CDATA[23-MAR-12 11:01:00]]></desc>
  </wpt>
  <wpt lat="42.86338" lon="-0.39222">
    <ele>1268.095215</ele>
    <name><![CDATA[011]]></name>
    <desc><![CDATA[23-MAR-12 14:09:02]]></desc>
  </wpt>
  <trk>
    <name><![CDATA[ACTIVE LOG 025]]></name>
    <trkseg>
      <trkpt lat="42.88692" lon="-0.42636">
        <ele>1042.687256</ele>
        <time>2012-03-23T09:20:23Z</time>
      </trkpt>
      <trkpt lat="42.88692" lon="-0.42636">
        <ele>1042.687256</ele>
        <time>2012-03-23T09:20:24Z</time>
      </trkpt>
      <trkpt lat="42.88692" lon="-0.42636">
        <ele>1042.687256</ele>
        <time>2012-03-23T09:20:25Z</time>
      </trkpt>
      <trkpt lat="42.88695" lon="-0.42624">
        <ele>1044.609619</ele>
        <time>2012-03-23T09:21:00Z</time>
      </trkpt>
      <trkpt lat="42.88701" lon="-0.42607">
        <ele>1047.012939</ele>
        <time>2012-03-23T09:21:18Z</time>
      </trkpt>
      <trkpt lat="42.88704" lon="-0.4259">
        <ele>1049.896973</ele>
        <time>2012-03-23T09:21:34Z</time>
      </trkpt>
      <trkpt lat="42.88704" lon="-0.42583">
        <ele>1050.858154</ele>
        <time>2012-03-23T09:21:49Z</time>
      </trkpt>
      <trkpt lat="42.88707" lon="-0.42571">
        <ele>1052.781006</ele>
        <time>2012-03-23T09:22:10Z</time>
      </trkpt>
      <trkpt lat="42.88711" lon="-0.42556">
        <ele>1054.223145</ele>
        <time>2012-03-23T09:22:26Z</time>
      </trkpt>
      <trkpt lat="42.88715" lon="-0.42543">
        <ele>1056.145508</ele>
        <time>2012-03-23T09:22:40Z</time>
      </trkpt>
      <trkpt lat="42.88714" lon="-0.42531">
        <ele>1057.587646</ele>
        <time>2012-03-23T09:22:56Z</time>
      </trkpt>
      <trkpt lat="42.88714" lon="-0.42519">
        <ele>1058.548828</ele>
        <time>2012-03-23T09:23:08Z</time>
      </trkpt>
      <trkpt lat="42.88717" lon="-0.4251">
        <ele>1059.510254</ele>
        <time>2012-03-23T09:23:18Z</time>
      </trkpt>
      <trkpt lat="42.8872" lon="-0.42501">
        <ele>1060.952148</ele>
        <time>2012-03-23T09:23:31Z</time>
      </trkpt>
      <trkpt lat="42.88723" lon="-0.42488">
        <ele>1062.874756</ele>
        <time>2012-03-23T09:23:44Z</time>
      </trkpt>
      <trkpt lat="42.88728" lon="-0.42482">
        <ele>1064.31665</ele>
        <time>2012-03-23T09:23:57Z</time>
      </trkpt>
      <trkpt lat="42.88733" lon="-0.42476">
        <ele>1065.278076</ele>
        <time>2012-03-23T09:24:12Z</time>
      </trkpt>
      <trkpt lat="42.88732" lon="-0.42464">
        <ele>1065.278076</ele>
        <time>2012-03-23T09:24:38Z</time>
      </trkpt>
      <trkpt lat="42.88738" lon="-0.42456">
        <ele>1066.239258</ele>
        <time>2012-03-23T09:24:57Z</time>
      </trkpt>
      <trkpt lat="42.88749" lon="-0.42443">
        <ele>1068.162109</ele>
        <time>2012-03-23T09:25:14Z</time>
      </trkpt>
      <trkpt lat="42.88757" lon="-0.42431">
        <ele>1070.084717</ele>
        <time>2012-03-23T09:25:28Z</time>
      </trkpt>
      <trkpt lat="42.8876" lon="-0.42426">
        <ele>1069.604248</ele>
        <time>2012-03-23T09:25:42Z</time>
      </trkpt>
      <trkpt lat="42.88767" lon="-0.42408">
        <ele>1071.526611</ele>
        <time>2012-03-23T09:25:58Z</time>
      </trkpt>
      <trkpt lat="42.88772" lon="-0.42383">
        <ele>1072.007324</ele>
        <time>2012-03-23T09:26:17Z</time>
      </trkpt>
      <trkpt lat="42.88774" lon="-0.42381">
        <ele>1071.526611</ele>
        <time>2012-03-23T09:26:30Z</time>
      </trkpt>
      <trkpt lat="42.88774" lon="-0.42376">
        <ele>1071.526611</ele>
        <time>2012-03-23T09:26:36Z</time>
      </trkpt>
      <trkpt lat="42.88774" lon="-0.42368">
        <ele>1072.007324</ele>
        <time>2012-03-23T09:26:41Z</time>
      </trkpt>
      <trkpt lat="42.88782" lon="-0.42336">
        <ele>1072.488037</ele>
        <time>2012-03-23T09:26:59Z</time>
      </trkpt>
      <trkpt lat="42.88785" lon="-0.42326">
        <ele>1072.96875</ele>
        <time>2012-03-23T09:27:05Z</time>
      </trkpt>
      <trkpt lat="42.88788" lon="-0.42306">
        <ele>1073.929932</ele>
        <time>2012-03-23T09:27:18Z</time>
      </trkpt>
      <trkpt lat="42.88791" lon="-0.42285">
        <ele>1074.891357</ele>
        <time>2012-03-23T09:27:32Z</time>
      </trkpt>
      <trkpt lat="42.88797" lon="-0.42272">
        <ele>1075.852539</ele>
        <time>2012-03-23T09:27:41Z</time>
      </trkpt>
      <trkpt lat="42.88797" lon="-0.42258">
        <ele>1077.294678</ele>
        <time>2012-03-23T09:27:54Z</time>
      </trkpt>
      <trkpt lat="42.88792" lon="-0.42239">
        <ele>1080.178467</ele>
        <time>2012-03-23T09:28:10Z</time>
      </trkpt>
      <trkpt lat="42.88795" lon="-0.42219">
        <ele>1082.101074</ele>
        <time>2012-03-23T09:28:26Z</time>
      </trkpt>
      <trkpt lat="42.88795" lon="-0.42202">
        <ele>1083.542969</ele>
        <time>2012-03-23T09:28:41Z</time>
      </trkpt>
      <trkpt lat="42.88795" lon="-0.42184">
        <ele>1085.46582</ele>
        <time>2012-03-23T09:28:57Z</time>
      </trkpt>
      <trkpt lat="42.88793" lon="-0.42173">
        <ele>1086.427246</ele>
        <time>2012-03-23T09:29:11Z</time>
      </trkpt>
      <trkpt lat="42.88791" lon="-0.42169">
        <ele>1086.907715</ele>
        <time>2012-03-23T09:29:30Z</time>
      </trkpt>
      <trkpt lat="42.88786" lon="-0.42155">
        <ele>1088.830566</ele>
        <time>2012-03-23T09:29:44Z</time>
      </trkpt>
      <trkpt lat="42.8878" lon="-0.42141">
        <ele>1092.195068</ele>
        <time>2012-03-23T09:29:57Z</time>
      </trkpt>
      <trkpt lat="42.88774" lon="-0.42125">
        <ele>1093.636963</ele>
        <time>2012-03-23T09:30:12Z</time>
      </trkpt>
      <trkpt lat="42.88768" lon="-0.42105">
        <ele>1094.117676</ele>
        <time>2012-03-23T09:30:27Z</time>
      </trkpt>
      <trkpt lat="42.8876" lon="-0.4209">
        <ele>1095.078857</ele>
        <time>2012-03-23T09:30:40Z</time>
      </trkpt>
      <trkpt lat="42.88754" lon="-0.42072">
        <ele>1096.520996</ele>
        <time>2012-03-23T09:30:54Z</time>
      </trkpt>
      <trkpt lat="42.88749" lon="-0.42058">
        <ele>1097.962891</ele>
        <time>2012-03-23T09:31:07Z</time>
      </trkpt>
      <trkpt lat="42.88746" lon="-0.42045">
        <ele>1098.443359</ele>
        <time>2012-03-23T09:31:16Z</time>
      </trkpt>
      <trkpt lat="42.88745" lon="-0.42021">
        <ele>1100.846924</ele>
        <time>2012-03-23T09:31:31Z</time>
      </trkpt>
      <trkpt lat="42.88744" lon="-0.42004">
        <ele>1101.80835</ele>
        <time>2012-03-23T09:31:41Z</time>
      </trkpt>
      <trkpt lat="42.88744" lon="-0.41996">
        <ele>1102.288818</ele>
        <time>2012-03-23T09:31:46Z</time>
      </trkpt>
      <trkpt lat="42.88744" lon="-0.41993">
        <ele>1102.769531</ele>
        <time>2012-03-23T09:31:48Z</time>
      </trkpt>
      <trkpt lat="42.88746" lon="-0.41967">
        <ele>1103.730957</ele>
        <time>2012-03-23T09:32:04Z</time>
      </trkpt>
      <trkpt lat="42.88752" lon="-0.41944">
        <ele>1105.172852</ele>
        <time>2012-03-23T09:32:19Z</time>
      </trkpt>
      <trkpt lat="42.88752" lon="-0.4194">
        <ele>1105.172852</ele>
        <time>2012-03-23T09:32:21Z</time>
      </trkpt>
      <trkpt lat="42.88756" lon="-0.4193">
        <ele>1106.134033</ele>
        <time>2012-03-23T09:32:28Z</time>
      </trkpt>
      <trkpt lat="42.88757" lon="-0.41922">
        <ele>1106.134033</ele>
        <time>2012-03-23T09:32:33Z</time>
      </trkpt>
      <trkpt lat="42.88758" lon="-0.41913">
        <ele>1107.576172</ele>
        <time>2012-03-23T09:32:39Z</time>
      </trkpt>
      <trkpt lat="42.88758" lon="-0.41908">
        <ele>1108.056885</ele>
        <time>2012-03-23T09:32:42Z</time>
      </trkpt>
      <trkpt lat="42.88759" lon="-0.41905">
        <ele>1109.018066</ele>
        <time>2012-03-23T09:32:44Z</time>
      </trkpt>
      <trkpt lat="42.88761" lon="-0.41886">
        <ele>1109.018066</ele>
        <time>2012-03-23T09:32:57Z</time>
      </trkpt>
      <trkpt lat="42.88764" lon="-0.41871">
        <ele>1109.979248</ele>
        <time>2012-03-23T09:33:07Z</time>
      </trkpt>
      <trkpt lat="42.88766" lon="-0.41858">
        <ele>1110.940674</ele>
        <time>2012-03-23T09:33:15Z</time>
      </trkpt>
      <trkpt lat="42.88771" lon="-0.4184">
        <ele>1112.382568</ele>
        <time>2012-03-23T09:33:27Z</time>
      </trkpt>
      <trkpt lat="42.88772" lon="-0.41835">
        <ele>1112.382568</ele>
        <time>2012-03-23T09:33:30Z</time>
      </trkpt>
      <trkpt lat="42.88774" lon="-0.41824">
        <ele>1114.305176</ele>
        <time>2012-03-23T09:33:37Z</time>
      </trkpt>
      <trkpt lat="42.88774" lon="-0.41803">
        <ele>1115.266602</ele>
        <time>2012-03-23T09:33:50Z</time>
      </trkpt>
      <trkpt lat="42.88768" lon="-0.4178">
        <ele>1116.70874</ele>
        <time>2012-03-23T09:34:05Z</time>
      </trkpt>
      <trkpt lat="42.88763" lon="-0.41765">
        <ele>1117.669922</ele>
        <time>2012-03-23T09:34:18Z</time>
      </trkpt>
      <trkpt lat="42.88758" lon="-0.41747">
        <ele>1118.631348</ele>
        <time>2012-03-23T09:34:31Z</time>
      </trkpt>
      <trkpt lat="42.8875" lon="-0.41733">
        <ele>1119.592773</ele>
        <time>2012-03-23T09:34:41Z</time>
      </trkpt>
      <trkpt lat="42.88742" lon="-0.41713">
        <ele>1120.073242</ele>
        <time>2012-03-23T09:34:57Z</time>
      </trkpt>
      <trkpt lat="42.88734" lon="-0.41695">
        <ele>1121.034668</ele>
        <time>2012-03-23T09:35:09Z</time>
      </trkpt>
      <trkpt lat="42.88728" lon="-0.41676">
        <ele>1122.476562</ele>
        <time>2012-03-23T09:35:22Z</time>
      </trkpt>
      <trkpt lat="42.88722" lon="-0.41647">
        <ele>1123.437988</ele>
        <time>2012-03-23T09:35:41Z</time>
      </trkpt>
      <trkpt lat="42.8872" lon="-0.41624">
        <ele>1124.879883</ele>
        <time>2012-03-23T09:35:56Z</time>
      </trkpt>
      <trkpt lat="42.88717" lon="-0.41601">
        <ele>1124.879883</ele>
        <time>2012-03-23T09:36:10Z</time>
      </trkpt>
      <trkpt lat="42.88717" lon="-0.41585">
        <ele>1126.321777</ele>
        <time>2012-03-23T09:36:22Z</time>
      </trkpt>
      <trkpt lat="42.88714" lon="-0.41561">
        <ele>1127.763672</ele>
        <time>2012-03-23T09:36:38Z</time>
      </trkpt>
      <trkpt lat="42.8871" lon="-0.41549">
        <ele>1127.763672</ele>
        <time>2012-03-23T09:36:53Z</time>
      </trkpt>
      <trkpt lat="42.8871" lon="-0.41519">
        <ele>1129.686279</ele>
        <time>2012-03-23T09:37:13Z</time>
      </trkpt>
      <trkpt lat="42.8871" lon="-0.41513">
        <ele>1131.128418</ele>
        <time>2012-03-23T09:37:17Z</time>
      </trkpt>
      <trkpt lat="42.88712" lon="-0.41486">
        <ele>1133.531738</ele>
        <time>2012-03-23T09:37:36Z</time>
      </trkpt>
      <trkpt lat="42.88707" lon="-0.41466">
        <ele>1133.531738</ele>
        <time>2012-03-23T09:37:57Z</time>
      </trkpt>
      <trkpt lat="42.88703" lon="-0.41455">
        <ele>1135.935059</ele>
        <time>2012-03-23T09:38:13Z</time>
      </trkpt>
      <trkpt lat="42.887" lon="-0.41456">
        <ele>1134.973877</ele>
        <time>2012-03-23T09:38:58Z</time>
      </trkpt>
      <trkpt lat="42.88699" lon="-0.41456">
        <ele>1136.415771</ele>
        <time>2012-03-23T09:39:53Z</time>
      </trkpt>
      <trkpt lat="42.88699" lon="-0.41456">
        <ele>1135.935059</ele>
        <time>2012-03-23T09:40:12Z</time>
      </trkpt>
      <trkpt lat="42.88697" lon="-0.41455">
        <ele>1136.415771</ele>
        <time>2012-03-23T09:40:47Z</time>
      </trkpt>
      <trkpt lat="42.88696" lon="-0.41452">
        <ele>1136.89624</ele>
        <time>2012-03-23T09:41:15Z</time>
      </trkpt>
      <trkpt lat="42.88693" lon="-0.41443">
        <ele>1136.89624</ele>
        <time>2012-03-23T09:41:29Z</time>
      </trkpt>
      <trkpt lat="42.88682" lon="-0.41417">
        <ele>1138.819092</ele>
        <time>2012-03-23T09:41:48Z</time>
      </trkpt>
      <trkpt lat="42.88681" lon="-0.41415">
        <ele>1139.299561</ele>
        <time>2012-03-23T09:42:03Z</time>
      </trkpt>
      <trkpt lat="42.88674" lon="-0.41402">
        <ele>1139.780273</ele>
        <time>2012-03-23T09:42:34Z</time>
      </trkpt>
      <trkpt lat="42.88675" lon="-0.41396">
        <ele>1139.780273</ele>
        <time>2012-03-23T09:42:58Z</time>
      </trkpt>
      <trkpt lat="42.88668" lon="-0.41376">
        <ele>1140.741455</ele>
        <time>2012-03-23T09:43:13Z</time>
      </trkpt>
      <trkpt lat="42.88655" lon="-0.41349">
        <ele>1143.144775</ele>
        <time>2012-03-23T09:43:32Z</time>
      </trkpt>
      <trkpt lat="42.88644" lon="-0.4132">
        <ele>1145.067383</ele>
        <time>2012-03-23T09:43:52Z</time>
      </trkpt>
      <trkpt lat="42.88631" lon="-0.41293">
        <ele>1145.548096</ele>
        <time>2012-03-23T09:44:11Z</time>
      </trkpt>
      <trkpt lat="42.88616" lon="-0.41267">
        <ele>1146.98999</ele>
        <time>2012-03-23T09:44:34Z</time>
      </trkpt>
      <trkpt lat="42.88607" lon="-0.41246">
        <ele>1146.98999</ele>
        <time>2012-03-23T09:44:53Z</time>
      </trkpt>
      <trkpt lat="42.88601" lon="-0.41208">
        <ele>1148.432129</ele>
        <time>2012-03-23T09:45:16Z</time>
      </trkpt>
      <trkpt lat="42.88603" lon="-0.41178">
        <ele>1149.393555</ele>
        <time>2012-03-23T09:45:34Z</time>
      </trkpt>
      <trkpt lat="42.88602" lon="-0.41165">
        <ele>1149.874268</ele>
        <time>2012-03-23T09:45:53Z</time>
      </trkpt>
      <trkpt lat="42.886" lon="-0.41163">
        <ele>1150.35498</ele>
        <time>2012-03-23T09:45:56Z</time>
      </trkpt>
      <trkpt lat="42.88598" lon="-0.41158">
        <ele>1149.874268</ele>
        <time>2012-03-23T09:46:00Z</time>
      </trkpt>
      <trkpt lat="42.88588" lon="-0.41132">
        <ele>1150.835449</ele>
        <time>2012-03-23T09:46:18Z</time>
      </trkpt>
      <trkpt lat="42.88586" lon="-0.41128">
        <ele>1153.719482</ele>
        <time>2012-03-23T09:46:21Z</time>
      </trkpt>
      <trkpt lat="42.8858" lon="-0.41102">
        <ele>1154.200195</ele>
        <time>2012-03-23T09:46:37Z</time>
      </trkpt>
      <trkpt lat="42.88585" lon="-0.41078">
        <ele>1154.680664</ele>
        <time>2012-03-23T09:46:52Z</time>
      </trkpt>
      <trkpt lat="42.88586" lon="-0.41076">
        <ele>1155.161377</ele>
        <time>2012-03-23T09:46:54Z</time>
      </trkpt>
      <trkpt lat="42.8859" lon="-0.41067">
        <ele>1156.122559</ele>
        <time>2012-03-23T09:47:01Z</time>
      </trkpt>
      <trkpt lat="42.88598" lon="-0.41053">
        <ele>1158.04541</ele>
        <time>2012-03-23T09:47:12Z</time>
      </trkpt>
      <trkpt lat="42.88617" lon="-0.41037">
        <ele>1160.448486</ele>
        <time>2012-03-23T09:47:30Z</time>
      </trkpt>
      <trkpt lat="42.88618" lon="-0.41026">
        <ele>1160.929199</ele>
        <time>2012-03-23T09:47:36Z</time>
      </trkpt>
      <trkpt lat="42.88622" lon="-0.40995">
        <ele>1161.890625</ele>
        <time>2012-03-23T09:47:53Z</time>
      </trkpt>
      <trkpt lat="42.8862" lon="-0.40972">
        <ele>1163.33252</ele>
        <time>2012-03-23T09:48:07Z</time>
      </trkpt>
      <trkpt lat="42.88616" lon="-0.40947">
        <ele>1164.293945</ele>
        <time>2012-03-23T09:48:23Z</time>
      </trkpt>
      <trkpt lat="42.88613" lon="-0.40941">
        <ele>1164.774658</ele>
        <time>2012-03-23T09:48:28Z</time>
      </trkpt>
      <trkpt lat="42.886" lon="-0.40921">
        <ele>1165.255371</ele>
        <time>2012-03-23T09:48:46Z</time>
      </trkpt>
      <trkpt lat="42.88588" lon="-0.40904">
        <ele>1168.13916</ele>
        <time>2012-03-23T09:49:00Z</time>
      </trkpt>
      <trkpt lat="42.88575" lon="-0.40885">
        <ele>1169.100586</ele>
        <time>2012-03-23T09:49:15Z</time>
      </trkpt>
      <trkpt lat="42.88564" lon="-0.40865">
        <ele>1171.023193</ele>
        <time>2012-03-23T09:49:31Z</time>
      </trkpt>
      <trkpt lat="42.88551" lon="-0.40833">
        <ele>1172.945801</ele>
        <time>2012-03-23T09:49:52Z</time>
      </trkpt>
      <trkpt lat="42.88543" lon="-0.40813">
        <ele>1173.426514</ele>
        <time>2012-03-23T09:50:06Z</time>
      </trkpt>
      <trkpt lat="42.88531" lon="-0.40782">
        <ele>1175.348877</ele>
        <time>2012-03-23T09:50:27Z</time>
      </trkpt>
      <trkpt lat="42.88524" lon="-0.40764">
        <ele>1175.348877</ele>
        <time>2012-03-23T09:50:40Z</time>
      </trkpt>
      <trkpt lat="42.88513" lon="-0.40735">
        <ele>1177.752197</ele>
        <time>2012-03-23T09:50:58Z</time>
      </trkpt>
      <trkpt lat="42.88499" lon="-0.40704">
        <ele>1177.271729</ele>
        <time>2012-03-23T09:51:18Z</time>
      </trkpt>
      <trkpt lat="42.88492" lon="-0.40686">
        <ele>1178.23291</ele>
        <time>2012-03-23T09:51:30Z</time>
      </trkpt>
      <trkpt lat="42.8849" lon="-0.40681">
        <ele>1178.23291</ele>
        <time>2012-03-23T09:51:33Z</time>
      </trkpt>
      <trkpt lat="42.88488" lon="-0.40671">
        <ele>1178.713623</ele>
        <time>2012-03-23T09:51:39Z</time>
      </trkpt>
      <trkpt lat="42.88485" lon="-0.40641">
        <ele>1179.674805</ele>
        <time>2012-03-23T09:51:57Z</time>
      </trkpt>
      <trkpt lat="42.88486" lon="-0.40639">
        <ele>1179.674805</ele>
        <time>2012-03-23T09:51:58Z</time>
      </trkpt>
      <trkpt lat="42.88486" lon="-0.40612">
        <ele>1180.155762</ele>
        <time>2012-03-23T09:52:14Z</time>
      </trkpt>
      <trkpt lat="42.88485" lon="-0.40591">
        <ele>1182.078369</ele>
        <time>2012-03-23T09:52:27Z</time>
      </trkpt>
      <trkpt lat="42.8849" lon="-0.40572">
        <ele>1182.559082</ele>
        <time>2012-03-23T09:52:38Z</time>
      </trkpt>
      <trkpt lat="42.88489" lon="-0.40546">
        <ele>1184.481689</ele>
        <time>2012-03-23T09:52:56Z</time>
      </trkpt>
      <trkpt lat="42.8849" lon="-0.40545">
        <ele>1184.481689</ele>
        <time>2012-03-23T09:52:57Z</time>
      </trkpt>
      <trkpt lat="42.88491" lon="-0.40537">
        <ele>1185.442871</ele>
        <time>2012-03-23T09:53:02Z</time>
      </trkpt>
      <trkpt lat="42.88489" lon="-0.40513">
        <ele>1187.365479</ele>
        <time>2012-03-23T09:53:20Z</time>
      </trkpt>
      <trkpt lat="42.8849" lon="-0.4051">
        <ele>1187.846191</ele>
        <time>2012-03-23T09:53:22Z</time>
      </trkpt>
      <trkpt lat="42.88489" lon="-0.40505">
        <ele>1186.884766</ele>
        <time>2012-03-23T09:53:26Z</time>
      </trkpt>
      <trkpt lat="42.88491" lon="-0.40492">
        <ele>1187.846191</ele>
        <time>2012-03-23T09:53:40Z</time>
      </trkpt>
      <trkpt lat="42.8849" lon="-0.4049">
        <ele>1187.365479</ele>
        <time>2012-03-23T09:53:56Z</time>
      </trkpt>
      <trkpt lat="42.88492" lon="-0.40493">
        <ele>1187.365479</ele>
        <time>2012-03-23T09:54:06Z</time>
      </trkpt>
      <trkpt lat="42.88497" lon="-0.40495">
        <ele>1186.884766</ele>
        <time>2012-03-23T09:54:24Z</time>
      </trkpt>
      <trkpt lat="42.88498" lon="-0.40495">
        <ele>1187.846191</ele>
        <time>2012-03-23T09:54:26Z</time>
      </trkpt>
      <trkpt lat="42.88497" lon="-0.40498">
        <ele>1186.884766</ele>
        <time>2012-03-23T09:54:47Z</time>
      </trkpt>
      <trkpt lat="42.885" lon="-0.40496">
        <ele>1187.846191</ele>
        <time>2012-03-23T09:56:07Z</time>
      </trkpt>
      <trkpt lat="42.88503" lon="-0.40493">
        <ele>1186.884766</ele>
        <time>2012-03-23T09:57:54Z</time>
      </trkpt>
      <trkpt lat="42.88496" lon="-0.40489">
        <ele>1187.365479</ele>
        <time>2012-03-23T09:59:11Z</time>
      </trkpt>
      <trkpt lat="42.88495" lon="-0.40486">
        <ele>1187.365479</ele>
        <time>2012-03-23T09:59:16Z</time>
      </trkpt>
      <trkpt lat="42.88489" lon="-0.40461">
        <ele>1189.288086</ele>
        <time>2012-03-23T09:59:37Z</time>
      </trkpt>
      <trkpt lat="42.88488" lon="-0.40458">
        <ele>1189.768799</ele>
        <time>2012-03-23T09:59:40Z</time>
      </trkpt>
      <trkpt lat="42.88484" lon="-0.40447">
        <ele>1190.249512</ele>
        <time>2012-03-23T09:59:54Z</time>
      </trkpt>
      <trkpt lat="42.8848" lon="-0.4044">
        <ele>1190.249512</ele>
        <time>2012-03-23T10:00:20Z</time>
      </trkpt>
      <trkpt lat="42.8847" lon="-0.40425">
        <ele>1191.210693</ele>
        <time>2012-03-23T10:00:36Z</time>
      </trkpt>
      <trkpt lat="42.88467" lon="-0.40413">
        <ele>1191.691406</ele>
        <time>2012-03-23T10:00:51Z</time>
      </trkpt>
      <trkpt lat="42.88463" lon="-0.40408">
        <ele>1191.691406</ele>
        <time>2012-03-23T10:01:07Z</time>
      </trkpt>
      <trkpt lat="42.88465" lon="-0.404">
        <ele>1190.72998</ele>
        <time>2012-03-23T10:01:15Z</time>
      </trkpt>
      <trkpt lat="42.88468" lon="-0.40393">
        <ele>1188.807617</ele>
        <time>2012-03-23T10:01:34Z</time>
      </trkpt>
      <trkpt lat="42.88464" lon="-0.40383">
        <ele>1189.288086</ele>
        <time>2012-03-23T10:02:27Z</time>
      </trkpt>
      <trkpt lat="42.88469" lon="-0.40378">
        <ele>1188.807617</ele>
        <time>2012-03-23T10:02:53Z</time>
      </trkpt>
      <trkpt lat="42.88468" lon="-0.40379">
        <ele>1188.807617</ele>
        <time>2012-03-23T10:03:02Z</time>
      </trkpt>
      <trkpt lat="42.88468" lon="-0.40381">
        <ele>1188.807617</ele>
        <time>2012-03-23T10:03:04Z</time>
      </trkpt>
      <trkpt lat="42.88468" lon="-0.40383">
        <ele>1188.807617</ele>
        <time>2012-03-23T10:03:16Z</time>
      </trkpt>
      <trkpt lat="42.88472" lon="-0.40368">
        <ele>1189.288086</ele>
        <time>2012-03-23T10:03:28Z</time>
      </trkpt>
      <trkpt lat="42.88473" lon="-0.40355">
        <ele>1189.288086</ele>
        <time>2012-03-23T10:03:41Z</time>
      </trkpt>
      <trkpt lat="42.88467" lon="-0.40345">
        <ele>1191.210693</ele>
        <time>2012-03-23T10:03:55Z</time>
      </trkpt>
      <trkpt lat="42.88461" lon="-0.40336">
        <ele>1192.652832</ele>
        <time>2012-03-23T10:04:10Z</time>
      </trkpt>
      <trkpt lat="42.88459" lon="-0.40323">
        <ele>1194.575195</ele>
        <time>2012-03-23T10:04:24Z</time>
      </trkpt>
      <trkpt lat="42.88455" lon="-0.40312">
        <ele>1195.536621</ele>
        <time>2012-03-23T10:04:37Z</time>
      </trkpt>
      <trkpt lat="42.88445" lon="-0.40296">
        <ele>1199.38208</ele>
        <time>2012-03-23T10:04:54Z</time>
      </trkpt>
      <trkpt lat="42.88436" lon="-0.40289">
        <ele>1200.343506</ele>
        <time>2012-03-23T10:05:06Z</time>
      </trkpt>
      <trkpt lat="42.88434" lon="-0.40283">
        <ele>1202.265869</ele>
        <time>2012-03-23T10:05:21Z</time>
      </trkpt>
      <trkpt lat="42.88438" lon="-0.40285">
        <ele>1203.708008</ele>
        <time>2012-03-23T10:05:36Z</time>
      </trkpt>
      <trkpt lat="42.88443" lon="-0.40287">
        <ele>1207.553223</ele>
        <time>2012-03-23T10:05:49Z</time>
      </trkpt>
      <trkpt lat="42.88446" lon="-0.40282">
        <ele>1208.033936</ele>
        <time>2012-03-23T10:06:03Z</time>
      </trkpt>
      <trkpt lat="42.8845" lon="-0.40283">
        <ele>1208.033936</ele>
        <time>2012-03-23T10:06:30Z</time>
      </trkpt>
      <trkpt lat="42.88452" lon="-0.40282">
        <ele>1208.514404</ele>
        <time>2012-03-23T10:06:50Z</time>
      </trkpt>
      <trkpt lat="42.88446" lon="-0.40283">
        <ele>1208.033936</ele>
        <time>2012-03-23T10:07:20Z</time>
      </trkpt>
      <trkpt lat="42.8845" lon="-0.40282">
        <ele>1207.553223</ele>
        <time>2012-03-23T10:07:44Z</time>
      </trkpt>
      <trkpt lat="42.88448" lon="-0.40283">
        <ele>1207.553223</ele>
        <time>2012-03-23T10:08:12Z</time>
      </trkpt>
      <trkpt lat="42.88445" lon="-0.40283">
        <ele>1206.591797</ele>
        <time>2012-03-23T10:08:34Z</time>
      </trkpt>
      <trkpt lat="42.88445" lon="-0.40281">
        <ele>1206.591797</ele>
        <time>2012-03-23T10:10:57Z</time>
      </trkpt>
      <trkpt lat="42.88444" lon="-0.4028">
        <ele>1206.591797</ele>
        <time>2012-03-23T10:11:21Z</time>
      </trkpt>
      <trkpt lat="42.88443" lon="-0.4028">
        <ele>1206.591797</ele>
        <time>2012-03-23T10:12:07Z</time>
      </trkpt>
      <trkpt lat="42.88447" lon="-0.40279">
        <ele>1208.514404</ele>
        <time>2012-03-23T10:13:11Z</time>
      </trkpt>
      <trkpt lat="42.88445" lon="-0.4028">
        <ele>1207.07251</ele>
        <time>2012-03-23T10:13:38Z</time>
      </trkpt>
      <trkpt lat="42.88451" lon="-0.40278">
        <ele>1208.033936</ele>
        <time>2012-03-23T10:13:57Z</time>
      </trkpt>
      <trkpt lat="42.8845" lon="-0.4028">
        <ele>1207.553223</ele>
        <time>2012-03-23T10:14:16Z</time>
      </trkpt>
      <trkpt lat="42.88449" lon="-0.40279">
        <ele>1208.995117</ele>
        <time>2012-03-23T10:14:38Z</time>
      </trkpt>
      <trkpt lat="42.88448" lon="-0.40281">
        <ele>1207.553223</ele>
        <time>2012-03-23T10:15:27Z</time>
      </trkpt>
      <trkpt lat="42.88448" lon="-0.40283">
        <ele>1208.033936</ele>
        <time>2012-03-23T10:16:04Z</time>
      </trkpt>
      <trkpt lat="42.88445" lon="-0.40282">
        <ele>1208.033936</ele>
        <time>2012-03-23T10:18:13Z</time>
      </trkpt>
      <trkpt lat="42.88446" lon="-0.40283">
        <ele>1207.07251</ele>
        <time>2012-03-23T10:18:28Z</time>
      </trkpt>
      <trkpt lat="42.88451" lon="-0.40282">
        <ele>1206.591797</ele>
        <time>2012-03-23T10:18:57Z</time>
      </trkpt>
      <trkpt lat="42.88447" lon="-0.40281">
        <ele>1207.07251</ele>
        <time>2012-03-23T10:19:41Z</time>
      </trkpt>
      <trkpt lat="42.88452" lon="-0.40272">
        <ele>1208.514404</ele>
        <time>2012-03-23T10:19:59Z</time>
      </trkpt>
      <trkpt lat="42.88453" lon="-0.40266">
        <ele>1210.917725</ele>
        <time>2012-03-23T10:20:13Z</time>
      </trkpt>
      <trkpt lat="42.88451" lon="-0.40257">
        <ele>1212.840576</ele>
        <time>2012-03-23T10:20:29Z</time>
      </trkpt>
      <trkpt lat="42.88448" lon="-0.40249">
        <ele>1215.243896</ele>
        <time>2012-03-23T10:20:44Z</time>
      </trkpt>
      <trkpt lat="42.88451" lon="-0.40242">
        <ele>1216.205078</ele>
        <time>2012-03-23T10:20:57Z</time>
      </trkpt>
      <trkpt lat="42.8845" lon="-0.40236">
        <ele>1217.646973</ele>
        <time>2012-03-23T10:21:16Z</time>
      </trkpt>
      <trkpt lat="42.88448" lon="-0.40229">
        <ele>1219.089111</ele>
        <time>2012-03-23T10:21:33Z</time>
      </trkpt>
      <trkpt lat="42.88452" lon="-0.40227">
        <ele>1219.569824</ele>
        <time>2012-03-23T10:21:52Z</time>
      </trkpt>
      <trkpt lat="42.8845" lon="-0.40227">
        <ele>1220.531006</ele>
        <time>2012-03-23T10:22:11Z</time>
      </trkpt>
      <trkpt lat="42.88454" lon="-0.40228">
        <ele>1220.531006</ele>
        <time>2012-03-23T10:22:43Z</time>
      </trkpt>
      <trkpt lat="42.88453" lon="-0.40219">
        <ele>1221.9729</ele>
        <time>2012-03-23T10:23:26Z</time>
      </trkpt>
      <trkpt lat="42.88446" lon="-0.40226">
        <ele>1221.492188</ele>
        <time>2012-03-23T10:24:09Z</time>
      </trkpt>
      <trkpt lat="42.88446" lon="-0.40222">
        <ele>1222.934326</ele>
        <time>2012-03-23T10:24:58Z</time>
      </trkpt>
      <trkpt lat="42.88453" lon="-0.40225">
        <ele>1222.934326</ele>
        <time>2012-03-23T10:25:41Z</time>
      </trkpt>
      <trkpt lat="42.88458" lon="-0.40229">
        <ele>1222.934326</ele>
        <time>2012-03-23T10:26:09Z</time>
      </trkpt>
      <trkpt lat="42.88459" lon="-0.40228">
        <ele>1222.453613</ele>
        <time>2012-03-23T10:26:43Z</time>
      </trkpt>
      <trkpt lat="42.88458" lon="-0.40226">
        <ele>1222.934326</ele>
        <time>2012-03-23T10:27:33Z</time>
      </trkpt>
      <trkpt lat="42.88444" lon="-0.40221">
        <ele>1225.818115</ele>
        <time>2012-03-23T10:27:55Z</time>
      </trkpt>
      <trkpt lat="42.88432" lon="-0.40215">
        <ele>1229.182861</ele>
        <time>2012-03-23T10:28:10Z</time>
      </trkpt>
      <trkpt lat="42.88435" lon="-0.40206">
        <ele>1231.105713</ele>
        <time>2012-03-23T10:28:30Z</time>
      </trkpt>
      <trkpt lat="42.88439" lon="-0.402">
        <ele>1232.547607</ele>
        <time>2012-03-23T10:28:44Z</time>
      </trkpt>
      <trkpt lat="42.88447" lon="-0.40195">
        <ele>1234.950928</ele>
        <time>2012-03-23T10:29:00Z</time>
      </trkpt>
      <trkpt lat="42.88454" lon="-0.40187">
        <ele>1237.354004</ele>
        <time>2012-03-23T10:29:17Z</time>
      </trkpt>
      <trkpt lat="42.88456" lon="-0.40182">
        <ele>1239.276611</ele>
        <time>2012-03-23T10:29:26Z</time>
      </trkpt>
      <trkpt lat="42.8845" lon="-0.40173">
        <ele>1242.160645</ele>
        <time>2012-03-23T10:29:44Z</time>
      </trkpt>
      <trkpt lat="42.88458" lon="-0.40168">
        <ele>1245.525391</ele>
        <time>2012-03-23T10:29:59Z</time>
      </trkpt>
      <trkpt lat="42.88457" lon="-0.4016">
        <ele>1246.967285</ele>
        <time>2012-03-23T10:30:12Z</time>
      </trkpt>
      <trkpt lat="42.88455" lon="-0.40156">
        <ele>1249.851318</ele>
        <time>2012-03-23T10:30:22Z</time>
      </trkpt>
      <trkpt lat="42.88453" lon="-0.40153">
        <ele>1251.773926</ele>
        <time>2012-03-23T10:30:31Z</time>
      </trkpt>
      <trkpt lat="42.88455" lon="-0.40145">
        <ele>1254.657715</ele>
        <time>2012-03-23T10:30:49Z</time>
      </trkpt>
      <trkpt lat="42.88459" lon="-0.40141">
        <ele>1258.022461</ele>
        <time>2012-03-23T10:30:57Z</time>
      </trkpt>
      <trkpt lat="42.88468" lon="-0.40135">
        <ele>1260.906494</ele>
        <time>2012-03-23T10:31:24Z</time>
      </trkpt>
      <trkpt lat="42.8846" lon="-0.40132">
        <ele>1262.829102</ele>
        <time>2012-03-23T10:31:41Z</time>
      </trkpt>
      <trkpt lat="42.88464" lon="-0.40137">
        <ele>1264.751709</ele>
        <time>2012-03-23T10:32:02Z</time>
      </trkpt>
      <trkpt lat="42.88478" lon="-0.40141">
        <ele>1267.635498</ele>
        <time>2012-03-23T10:32:16Z</time>
      </trkpt>
      <trkpt lat="42.88483" lon="-0.40141">
        <ele>1270.038818</ele>
        <time>2012-03-23T10:32:29Z</time>
      </trkpt>
      <trkpt lat="42.88481" lon="-0.40128">
        <ele>1271.961426</ele>
        <time>2012-03-23T10:32:45Z</time>
      </trkpt>
      <trkpt lat="42.88481" lon="-0.40121">
        <ele>1273.403564</ele>
        <time>2012-03-23T10:32:55Z</time>
      </trkpt>
      <trkpt lat="42.88479" lon="-0.40112">
        <ele>1275.325928</ele>
        <time>2012-03-23T10:33:10Z</time>
      </trkpt>
      <trkpt lat="42.8848" lon="-0.40105">
        <ele>1278.690918</ele>
        <time>2012-03-23T10:33:23Z</time>
      </trkpt>
      <trkpt lat="42.88477" lon="-0.40097">
        <ele>1280.613525</ele>
        <time>2012-03-23T10:33:38Z</time>
      </trkpt>
      <trkpt lat="42.88476" lon="-0.40089">
        <ele>1283.978027</ele>
        <time>2012-03-23T10:33:49Z</time>
      </trkpt>
      <trkpt lat="42.88476" lon="-0.40078">
        <ele>1285.900635</ele>
        <time>2012-03-23T10:34:03Z</time>
      </trkpt>
      <trkpt lat="42.88474" lon="-0.40068">
        <ele>1288.784668</ele>
        <time>2012-03-23T10:34:15Z</time>
      </trkpt>
      <trkpt lat="42.8847" lon="-0.40062">
        <ele>1292.149414</ele>
        <time>2012-03-23T10:34:33Z</time>
      </trkpt>
      <trkpt lat="42.88465" lon="-0.40056">
        <ele>1294.55249</ele>
        <time>2012-03-23T10:34:45Z</time>
      </trkpt>
      <trkpt lat="42.88462" lon="-0.40055">
        <ele>1294.55249</ele>
        <time>2012-03-23T10:35:02Z</time>
      </trkpt>
      <trkpt lat="42.88462" lon="-0.40049">
        <ele>1295.033203</ele>
        <time>2012-03-23T10:35:19Z</time>
      </trkpt>
      <trkpt lat="42.88457" lon="-0.40049">
        <ele>1295.033203</ele>
        <time>2012-03-23T10:35:31Z</time>
      </trkpt>
      <trkpt lat="42.88458" lon="-0.40047">
        <ele>1295.033203</ele>
        <time>2012-03-23T10:35:46Z</time>
      </trkpt>
      <trkpt lat="42.88457" lon="-0.40046">
        <ele>1295.033203</ele>
        <time>2012-03-23T10:35:47Z</time>
      </trkpt>
      <trkpt lat="42.88454" lon="-0.4004">
        <ele>1295.033203</ele>
        <time>2012-03-23T10:35:53Z</time>
      </trkpt>
      <trkpt lat="42.88451" lon="-0.40036">
        <ele>1295.033203</ele>
        <time>2012-03-23T10:36:05Z</time>
      </trkpt>
      <trkpt lat="42.88454" lon="-0.40041">
        <ele>1294.55249</ele>
        <time>2012-03-23T10:36:22Z</time>
      </trkpt>
      <trkpt lat="42.88454" lon="-0.4004">
        <ele>1294.55249</ele>
        <time>2012-03-23T10:36:27Z</time>
      </trkpt>
      <trkpt lat="42.88457" lon="-0.40049">
        <ele>1294.55249</ele>
        <time>2012-03-23T10:36:33Z</time>
      </trkpt>
      <trkpt lat="42.88457" lon="-0.40056">
        <ele>1294.55249</ele>
        <time>2012-03-23T10:36:46Z</time>
      </trkpt>
      <trkpt lat="42.88457" lon="-0.40056">
        <ele>1295.513916</ele>
        <time>2012-03-23T10:36:48Z</time>
      </trkpt>
      <trkpt lat="42.88457" lon="-0.40057">
        <ele>1294.072021</ele>
        <time>2012-03-23T10:36:50Z</time>
      </trkpt>
      <trkpt lat="42.88454" lon="-0.40046">
        <ele>1294.55249</ele>
        <time>2012-03-23T10:37:07Z</time>
      </trkpt>
      <trkpt lat="42.88454" lon="-0.40042">
        <ele>1294.55249</ele>
        <time>2012-03-23T10:37:10Z</time>
      </trkpt>
      <trkpt lat="42.88454" lon="-0.40025">
        <ele>1295.033203</ele>
        <time>2012-03-23T10:37:26Z</time>
      </trkpt>
      <trkpt lat="42.88454" lon="-0.40027">
        <ele>1295.033203</ele>
        <time>2012-03-23T10:37:44Z</time>
      </trkpt>
      <trkpt lat="42.88455" lon="-0.40029">
        <ele>1295.033203</ele>
        <time>2012-03-23T10:37:53Z</time>
      </trkpt>
      <trkpt lat="42.88452" lon="-0.40034">
        <ele>1295.033203</ele>
        <time>2012-03-23T10:37:57Z</time>
      </trkpt>
      <trkpt lat="42.88428" lon="-0.40057">
        <ele>1294.55249</ele>
        <time>2012-03-23T10:38:19Z</time>
      </trkpt>
      <trkpt lat="42.88414" lon="-0.4007">
        <ele>1295.513916</ele>
        <time>2012-03-23T10:38:34Z</time>
      </trkpt>
      <trkpt lat="42.8841" lon="-0.40094">
        <ele>1295.033203</ele>
        <time>2012-03-23T10:38:52Z</time>
      </trkpt>
      <trkpt lat="42.8841" lon="-0.40094">
        <ele>1294.072021</ele>
        <time>2012-03-23T10:39:15Z</time>
      </trkpt>
      <trkpt lat="42.8841" lon="-0.40095">
        <ele>1295.033203</ele>
        <time>2012-03-23T10:39:38Z</time>
      </trkpt>
      <trkpt lat="42.88409" lon="-0.40096">
        <ele>1295.033203</ele>
        <time>2012-03-23T10:39:54Z</time>
      </trkpt>
      <trkpt lat="42.88411" lon="-0.40096">
        <ele>1295.513916</ele>
        <time>2012-03-23T10:40:08Z</time>
      </trkpt>
      <trkpt lat="42.88405" lon="-0.40101">
        <ele>1294.072021</ele>
        <time>2012-03-23T10:40:23Z</time>
      </trkpt>
      <trkpt lat="42.88407" lon="-0.40102">
        <ele>1295.033203</ele>
        <time>2012-03-23T10:41:00Z</time>
      </trkpt>
      <trkpt lat="42.88408" lon="-0.401">
        <ele>1294.55249</ele>
        <time>2012-03-23T10:41:29Z</time>
      </trkpt>
      <trkpt lat="42.8841" lon="-0.40097">
        <ele>1294.55249</ele>
        <time>2012-03-23T10:42:00Z</time>
      </trkpt>
      <trkpt lat="42.88412" lon="-0.40095">
        <ele>1295.033203</ele>
        <time>2012-03-23T10:42:43Z</time>
      </trkpt>
      <trkpt lat="42.88416" lon="-0.40097">
        <ele>1294.55249</ele>
        <time>2012-03-23T10:42:52Z</time>
      </trkpt>
      <trkpt lat="42.8842" lon="-0.40092">
        <ele>1294.072021</ele>
        <time>2012-03-23T10:43:07Z</time>
      </trkpt>
      <trkpt lat="42.88424" lon="-0.40085">
        <ele>1294.072021</ele>
        <time>2012-03-23T10:43:18Z</time>
      </trkpt>
      <trkpt lat="42.8843" lon="-0.40078">
        <ele>1294.072021</ele>
        <time>2012-03-23T10:43:26Z</time>
      </trkpt>
      <trkpt lat="42.88442" lon="-0.40061">
        <ele>1294.072021</ele>
        <time>2012-03-23T10:43:42Z</time>
      </trkpt>
      <trkpt lat="42.88451" lon="-0.40038">
        <ele>1294.55249</ele>
        <time>2012-03-23T10:43:59Z</time>
      </trkpt>
      <trkpt lat="42.8845" lon="-0.40035">
        <ele>1294.072021</ele>
        <time>2012-03-23T10:44:19Z</time>
      </trkpt>
      <trkpt lat="42.8845" lon="-0.40036">
        <ele>1293.591309</ele>
        <time>2012-03-23T10:45:53Z</time>
      </trkpt>
      <trkpt lat="42.88448" lon="-0.40035">
        <ele>1293.591309</ele>
        <time>2012-03-23T10:48:13Z</time>
      </trkpt>
      <trkpt lat="42.8845" lon="-0.40037">
        <ele>1293.110596</ele>
        <time>2012-03-23T11:21:38Z</time>
      </trkpt>
      <trkpt lat="42.88453" lon="-0.40035">
        <ele>1295.033203</ele>
        <time>2012-03-23T11:26:49Z</time>
      </trkpt>
      <trkpt lat="42.88452" lon="-0.40033">
        <ele>1295.033203</ele>
        <time>2012-03-23T11:27:07Z</time>
      </trkpt>
      <trkpt lat="42.88452" lon="-0.40033">
        <ele>1295.513916</ele>
        <time>2012-03-23T11:27:34Z</time>
      </trkpt>
      <trkpt lat="42.88454" lon="-0.40024">
        <ele>1295.033203</ele>
        <time>2012-03-23T11:27:50Z</time>
      </trkpt>
      <trkpt lat="42.88459" lon="-0.40007">
        <ele>1295.033203</ele>
        <time>2012-03-23T11:28:06Z</time>
      </trkpt>
      <trkpt lat="42.8847" lon="-0.39987">
        <ele>1296.475342</ele>
        <time>2012-03-23T11:28:25Z</time>
      </trkpt>
      <trkpt lat="42.88484" lon="-0.39969">
        <ele>1295.033203</ele>
        <time>2012-03-23T11:28:44Z</time>
      </trkpt>
      <trkpt lat="42.88489" lon="-0.39957">
        <ele>1296.955811</ele>
        <time>2012-03-23T11:28:55Z</time>
      </trkpt>
      <trkpt lat="42.88491" lon="-0.39955">
        <ele>1296.475342</ele>
        <time>2012-03-23T11:28:57Z</time>
      </trkpt>
      <trkpt lat="42.88498" lon="-0.39942">
        <ele>1296.475342</ele>
        <time>2012-03-23T11:29:09Z</time>
      </trkpt>
      <trkpt lat="42.88508" lon="-0.3992">
        <ele>1298.878418</ele>
        <time>2012-03-23T11:29:29Z</time>
      </trkpt>
      <trkpt lat="42.88512" lon="-0.3991">
        <ele>1298.397705</ele>
        <time>2012-03-23T11:29:41Z</time>
      </trkpt>
      <trkpt lat="42.88511" lon="-0.39907">
        <ele>1298.397705</ele>
        <time>2012-03-23T11:29:55Z</time>
      </trkpt>
      <trkpt lat="42.88509" lon="-0.39905">
        <ele>1297.917236</ele>
        <time>2012-03-23T11:30:09Z</time>
      </trkpt>
      <trkpt lat="42.88511" lon="-0.39896">
        <ele>1298.397705</ele>
        <time>2012-03-23T11:30:35Z</time>
      </trkpt>
      <trkpt lat="42.88513" lon="-0.39908">
        <ele>1298.397705</ele>
        <time>2012-03-23T11:31:02Z</time>
      </trkpt>
      <trkpt lat="42.88512" lon="-0.39903">
        <ele>1298.397705</ele>
        <time>2012-03-23T11:31:34Z</time>
      </trkpt>
      <trkpt lat="42.88512" lon="-0.39903">
        <ele>1297.436523</ele>
        <time>2012-03-23T11:31:49Z</time>
      </trkpt>
      <trkpt lat="42.8851" lon="-0.39905">
        <ele>1297.917236</ele>
        <time>2012-03-23T11:32:27Z</time>
      </trkpt>
      <trkpt lat="42.8851" lon="-0.39899">
        <ele>1297.917236</ele>
        <time>2012-03-23T11:33:07Z</time>
      </trkpt>
      <trkpt lat="42.88508" lon="-0.3989">
        <ele>1299.359131</ele>
        <time>2012-03-23T11:33:39Z</time>
      </trkpt>
      <trkpt lat="42.88501" lon="-0.39879">
        <ele>1299.839844</ele>
        <time>2012-03-23T11:33:54Z</time>
      </trkpt>
      <trkpt lat="42.88482" lon="-0.39882">
        <ele>1297.917236</ele>
        <time>2012-03-23T11:34:12Z</time>
      </trkpt>
      <trkpt lat="42.88482" lon="-0.39882">
        <ele>1296.955811</ele>
        <time>2012-03-23T11:34:13Z</time>
      </trkpt>
      <trkpt lat="42.88465" lon="-0.39895">
        <ele>1294.55249</ele>
        <time>2012-03-23T11:34:30Z</time>
      </trkpt>
      <trkpt lat="42.88453" lon="-0.39912">
        <ele>1293.110596</ele>
        <time>2012-03-23T11:34:45Z</time>
      </trkpt>
      <trkpt lat="42.88447" lon="-0.39917">
        <ele>1292.149414</ele>
        <time>2012-03-23T11:34:52Z</time>
      </trkpt>
      <trkpt lat="42.88435" lon="-0.39919">
        <ele>1289.74585</ele>
        <time>2012-03-23T11:35:04Z</time>
      </trkpt>
      <trkpt lat="42.88429" lon="-0.39906">
        <ele>1287.823242</ele>
        <time>2012-03-23T11:35:17Z</time>
      </trkpt>
      <trkpt lat="42.88429" lon="-0.39898">
        <ele>1286.861816</ele>
        <time>2012-03-23T11:35:22Z</time>
      </trkpt>
      <trkpt lat="42.88422" lon="-0.39863">
        <ele>1286.381348</ele>
        <time>2012-03-23T11:35:44Z</time>
      </trkpt>
      <trkpt lat="42.88414" lon="-0.39856">
        <ele>1285.900635</ele>
        <time>2012-03-23T11:35:52Z</time>
      </trkpt>
      <trkpt lat="42.88409" lon="-0.39858">
        <ele>1285.900635</ele>
        <time>2012-03-23T11:35:56Z</time>
      </trkpt>
      <trkpt lat="42.88388" lon="-0.39861">
        <ele>1285.900635</ele>
        <time>2012-03-23T11:36:13Z</time>
      </trkpt>
      <trkpt lat="42.88384" lon="-0.39861">
        <ele>1286.861816</ele>
        <time>2012-03-23T11:36:16Z</time>
      </trkpt>
      <trkpt lat="42.88372" lon="-0.39856">
        <ele>1287.342529</ele>
        <time>2012-03-23T11:36:26Z</time>
      </trkpt>
      <trkpt lat="42.88354" lon="-0.39843">
        <ele>1288.303955</ele>
        <time>2012-03-23T11:36:44Z</time>
      </trkpt>
      <trkpt lat="42.88344" lon="-0.39835">
        <ele>1288.303955</ele>
        <time>2012-03-23T11:37:02Z</time>
      </trkpt>
      <trkpt lat="42.88333" lon="-0.39826">
        <ele>1287.823242</ele>
        <time>2012-03-23T11:37:25Z</time>
      </trkpt>
      <trkpt lat="42.88318" lon="-0.39813">
        <ele>1287.823242</ele>
        <time>2012-03-23T11:37:40Z</time>
      </trkpt>
      <trkpt lat="42.88309" lon="-0.3981">
        <ele>1287.342529</ele>
        <time>2012-03-23T11:37:53Z</time>
      </trkpt>
      <trkpt lat="42.88305" lon="-0.39808">
        <ele>1287.342529</ele>
        <time>2012-03-23T11:38:10Z</time>
      </trkpt>
      <trkpt lat="42.88298" lon="-0.39806">
        <ele>1286.861816</ele>
        <time>2012-03-23T11:38:24Z</time>
      </trkpt>
      <trkpt lat="42.88304" lon="-0.39811">
        <ele>1286.861816</ele>
        <time>2012-03-23T11:38:52Z</time>
      </trkpt>
      <trkpt lat="42.88304" lon="-0.39813">
        <ele>1286.861816</ele>
        <time>2012-03-23T11:39:03Z</time>
      </trkpt>
      <trkpt lat="42.88326" lon="-0.39822">
        <ele>1287.342529</ele>
        <time>2012-03-23T11:39:23Z</time>
      </trkpt>
      <trkpt lat="42.88341" lon="-0.39838">
        <ele>1287.823242</ele>
        <time>2012-03-23T11:39:41Z</time>
      </trkpt>
      <trkpt lat="42.88341" lon="-0.39836">
        <ele>1287.823242</ele>
        <time>2012-03-23T11:39:47Z</time>
      </trkpt>
      <trkpt lat="42.88321" lon="-0.39815">
        <ele>1287.823242</ele>
        <time>2012-03-23T11:40:08Z</time>
      </trkpt>
      <trkpt lat="42.88307" lon="-0.3981">
        <ele>1286.861816</ele>
        <time>2012-03-23T11:40:26Z</time>
      </trkpt>
      <trkpt lat="42.88305" lon="-0.39811">
        <ele>1286.381348</ele>
        <time>2012-03-23T11:40:42Z</time>
      </trkpt>
      <trkpt lat="42.88304" lon="-0.39808">
        <ele>1287.342529</ele>
        <time>2012-03-23T11:41:05Z</time>
      </trkpt>
      <trkpt lat="42.88306" lon="-0.39807">
        <ele>1287.823242</ele>
        <time>2012-03-23T11:41:58Z</time>
      </trkpt>
      <trkpt lat="42.88305" lon="-0.3981">
        <ele>1287.342529</ele>
        <time>2012-03-23T11:42:25Z</time>
      </trkpt>
      <trkpt lat="42.88304" lon="-0.39809">
        <ele>1285.900635</ele>
        <time>2012-03-23T11:43:10Z</time>
      </trkpt>
      <trkpt lat="42.88307" lon="-0.39809">
        <ele>1285.419922</ele>
        <time>2012-03-23T11:43:36Z</time>
      </trkpt>
      <trkpt lat="42.883" lon="-0.39807">
        <ele>1286.381348</ele>
        <time>2012-03-23T11:43:48Z</time>
      </trkpt>
      <trkpt lat="42.88275" lon="-0.39815">
        <ele>1286.381348</ele>
        <time>2012-03-23T11:44:10Z</time>
      </trkpt>
      <trkpt lat="42.8825" lon="-0.39816">
        <ele>1286.381348</ele>
        <time>2012-03-23T11:44:31Z</time>
      </trkpt>
      <trkpt lat="42.88245" lon="-0.39815">
        <ele>1285.900635</ele>
        <time>2012-03-23T11:44:35Z</time>
      </trkpt>
      <trkpt lat="42.88241" lon="-0.39815">
        <ele>1285.900635</ele>
        <time>2012-03-23T11:44:38Z</time>
      </trkpt>
      <trkpt lat="42.88214" lon="-0.39816">
        <ele>1284.45874</ele>
        <time>2012-03-23T11:45:00Z</time>
      </trkpt>
      <trkpt lat="42.8821" lon="-0.39815">
        <ele>1283.978027</ele>
        <time>2012-03-23T11:45:04Z</time>
      </trkpt>
      <trkpt lat="42.88183" lon="-0.39817">
        <ele>1283.016602</ele>
        <time>2012-03-23T11:45:27Z</time>
      </trkpt>
      <trkpt lat="42.88164" lon="-0.39815">
        <ele>1281.094238</ele>
        <time>2012-03-23T11:45:46Z</time>
      </trkpt>
      <trkpt lat="42.88162" lon="-0.39815">
        <ele>1282.536133</ele>
        <time>2012-03-23T11:46:16Z</time>
      </trkpt>
      <trkpt lat="42.88162" lon="-0.39814">
        <ele>1282.536133</ele>
        <time>2012-03-23T11:46:18Z</time>
      </trkpt>
      <trkpt lat="42.88162" lon="-0.39816">
        <ele>1282.536133</ele>
        <time>2012-03-23T11:46:34Z</time>
      </trkpt>
      <trkpt lat="42.88161" lon="-0.39818">
        <ele>1283.016602</ele>
        <time>2012-03-23T11:47:21Z</time>
      </trkpt>
      <trkpt lat="42.88164" lon="-0.39817">
        <ele>1282.536133</ele>
        <time>2012-03-23T11:47:54Z</time>
      </trkpt>
      <trkpt lat="42.88169" lon="-0.39819">
        <ele>1283.016602</ele>
        <time>2012-03-23T11:47:59Z</time>
      </trkpt>
      <trkpt lat="42.88172" lon="-0.39819">
        <ele>1283.016602</ele>
        <time>2012-03-23T11:48:01Z</time>
      </trkpt>
      <trkpt lat="42.88179" lon="-0.39821">
        <ele>1283.978027</ele>
        <time>2012-03-23T11:48:16Z</time>
      </trkpt>
      <trkpt lat="42.88173" lon="-0.3982">
        <ele>1283.497314</ele>
        <time>2012-03-23T11:48:34Z</time>
      </trkpt>
      <trkpt lat="42.8816" lon="-0.39814">
        <ele>1283.016602</ele>
        <time>2012-03-23T11:48:50Z</time>
      </trkpt>
      <trkpt lat="42.88159" lon="-0.39799">
        <ele>1283.497314</ele>
        <time>2012-03-23T11:49:08Z</time>
      </trkpt>
      <trkpt lat="42.88157" lon="-0.39801">
        <ele>1283.978027</ele>
        <time>2012-03-23T11:49:45Z</time>
      </trkpt>
      <trkpt lat="42.88157" lon="-0.39808">
        <ele>1283.016602</ele>
        <time>2012-03-23T11:49:49Z</time>
      </trkpt>
      <trkpt lat="42.8816" lon="-0.39816">
        <ele>1283.016602</ele>
        <time>2012-03-23T11:50:00Z</time>
      </trkpt>
      <trkpt lat="42.88158" lon="-0.39799">
        <ele>1283.016602</ele>
        <time>2012-03-23T11:50:18Z</time>
      </trkpt>
      <trkpt lat="42.88158" lon="-0.398">
        <ele>1283.497314</ele>
        <time>2012-03-23T11:50:44Z</time>
      </trkpt>
      <trkpt lat="42.88158" lon="-0.398">
        <ele>1283.016602</ele>
        <time>2012-03-23T11:52:00Z</time>
      </trkpt>
      <trkpt lat="42.88157" lon="-0.39801">
        <ele>1283.016602</ele>
        <time>2012-03-23T11:53:19Z</time>
      </trkpt>
      <trkpt lat="42.88154" lon="-0.39792">
        <ele>1283.497314</ele>
        <time>2012-03-23T11:53:52Z</time>
      </trkpt>
      <trkpt lat="42.88136" lon="-0.39781">
        <ele>1284.939453</ele>
        <time>2012-03-23T11:54:09Z</time>
      </trkpt>
      <trkpt lat="42.88106" lon="-0.39768">
        <ele>1284.939453</ele>
        <time>2012-03-23T11:54:35Z</time>
      </trkpt>
      <trkpt lat="42.88099" lon="-0.39764">
        <ele>1284.939453</ele>
        <time>2012-03-23T11:54:41Z</time>
      </trkpt>
      <trkpt lat="42.88084" lon="-0.39745">
        <ele>1285.900635</ele>
        <time>2012-03-23T11:54:59Z</time>
      </trkpt>
      <trkpt lat="42.8807" lon="-0.39721">
        <ele>1287.342529</ele>
        <time>2012-03-23T11:55:17Z</time>
      </trkpt>
      <trkpt lat="42.88061" lon="-0.39692">
        <ele>1290.226562</ele>
        <time>2012-03-23T11:55:36Z</time>
      </trkpt>
      <trkpt lat="42.88059" lon="-0.39676">
        <ele>1288.784668</ele>
        <time>2012-03-23T11:55:52Z</time>
      </trkpt>
      <trkpt lat="42.88057" lon="-0.39664">
        <ele>1289.74585</ele>
        <time>2012-03-23T11:56:01Z</time>
      </trkpt>
      <trkpt lat="42.88051" lon="-0.39651">
        <ele>1288.784668</ele>
        <time>2012-03-23T11:56:13Z</time>
      </trkpt>
      <trkpt lat="42.88038" lon="-0.39621">
        <ele>1285.900635</ele>
        <time>2012-03-23T11:56:35Z</time>
      </trkpt>
      <trkpt lat="42.88022" lon="-0.39602">
        <ele>1283.016602</ele>
        <time>2012-03-23T11:56:52Z</time>
      </trkpt>
      <trkpt lat="42.87995" lon="-0.39593">
        <ele>1280.613525</ele>
        <time>2012-03-23T11:57:16Z</time>
      </trkpt>
      <trkpt lat="42.87983" lon="-0.39589">
        <ele>1277.729492</ele>
        <time>2012-03-23T11:57:27Z</time>
      </trkpt>
      <trkpt lat="42.87958" lon="-0.39582">
        <ele>1275.325928</ele>
        <time>2012-03-23T11:57:47Z</time>
      </trkpt>
      <trkpt lat="42.87939" lon="-0.39579">
        <ele>1271.961426</ele>
        <time>2012-03-23T11:58:02Z</time>
      </trkpt>
      <trkpt lat="42.87929" lon="-0.39581">
        <ele>1271.480713</ele>
        <time>2012-03-23T11:58:17Z</time>
      </trkpt>
      <trkpt lat="42.87923" lon="-0.39587">
        <ele>1271.000244</ele>
        <time>2012-03-23T11:58:28Z</time>
      </trkpt>
      <trkpt lat="42.87912" lon="-0.39589">
        <ele>1270.519531</ele>
        <time>2012-03-23T11:58:39Z</time>
      </trkpt>
      <trkpt lat="42.87887" lon="-0.39594">
        <ele>1268.116211</ele>
        <time>2012-03-23T11:58:59Z</time>
      </trkpt>
      <trkpt lat="42.87878" lon="-0.39598">
        <ele>1268.116211</ele>
        <time>2012-03-23T11:59:07Z</time>
      </trkpt>
      <trkpt lat="42.87862" lon="-0.39595">
        <ele>1268.116211</ele>
        <time>2012-03-23T11:59:23Z</time>
      </trkpt>
      <trkpt lat="42.87854" lon="-0.39591">
        <ele>1267.635498</ele>
        <time>2012-03-23T11:59:34Z</time>
      </trkpt>
      <trkpt lat="42.87853" lon="-0.39591">
        <ele>1267.155029</ele>
        <time>2012-03-23T11:59:35Z</time>
      </trkpt>
      <trkpt lat="42.87849" lon="-0.39589">
        <ele>1267.635498</ele>
        <time>2012-03-23T11:59:39Z</time>
      </trkpt>
      <trkpt lat="42.87843" lon="-0.39583">
        <ele>1268.116211</ele>
        <time>2012-03-23T11:59:45Z</time>
      </trkpt>
      <trkpt lat="42.87842" lon="-0.39582">
        <ele>1267.635498</ele>
        <time>2012-03-23T11:59:48Z</time>
      </trkpt>
      <trkpt lat="42.87854" lon="-0.39592">
        <ele>1268.116211</ele>
        <time>2012-03-23T12:00:02Z</time>
      </trkpt>
      <trkpt lat="42.87864" lon="-0.39592">
        <ele>1267.635498</ele>
        <time>2012-03-23T12:00:20Z</time>
      </trkpt>
      <trkpt lat="42.8786" lon="-0.39582">
        <ele>1269.55835</ele>
        <time>2012-03-23T12:00:35Z</time>
      </trkpt>
      <trkpt lat="42.87858" lon="-0.39578">
        <ele>1269.55835</ele>
        <time>2012-03-23T12:00:54Z</time>
      </trkpt>
      <trkpt lat="42.87857" lon="-0.39579">
        <ele>1269.55835</ele>
        <time>2012-03-23T12:01:15Z</time>
      </trkpt>
      <trkpt lat="42.87857" lon="-0.39577">
        <ele>1270.519531</ele>
        <time>2012-03-23T12:02:20Z</time>
      </trkpt>
      <trkpt lat="42.87856" lon="-0.39579">
        <ele>1271.000244</ele>
        <time>2012-03-23T12:03:45Z</time>
      </trkpt>
      <trkpt lat="42.87856" lon="-0.39576">
        <ele>1271.000244</ele>
        <time>2012-03-23T12:04:44Z</time>
      </trkpt>
      <trkpt lat="42.87859" lon="-0.39578">
        <ele>1271.480713</ele>
        <time>2012-03-23T12:05:07Z</time>
      </trkpt>
      <trkpt lat="42.8786" lon="-0.39582">
        <ele>1270.519531</ele>
        <time>2012-03-23T12:05:28Z</time>
      </trkpt>
      <trkpt lat="42.87862" lon="-0.39597">
        <ele>1268.116211</ele>
        <time>2012-03-23T12:05:47Z</time>
      </trkpt>
      <trkpt lat="42.87861" lon="-0.39597">
        <ele>1268.116211</ele>
        <time>2012-03-23T12:05:48Z</time>
      </trkpt>
      <trkpt lat="42.87839" lon="-0.39579">
        <ele>1268.596924</ele>
        <time>2012-03-23T12:06:10Z</time>
      </trkpt>
      <trkpt lat="42.87822" lon="-0.39563">
        <ele>1268.596924</ele>
        <time>2012-03-23T12:06:28Z</time>
      </trkpt>
      <trkpt lat="42.87809" lon="-0.39555">
        <ele>1268.116211</ele>
        <time>2012-03-23T12:06:46Z</time>
      </trkpt>
      <trkpt lat="42.87803" lon="-0.39552">
        <ele>1267.155029</ele>
        <time>2012-03-23T12:07:01Z</time>
      </trkpt>
      <trkpt lat="42.87794" lon="-0.39547">
        <ele>1264.751709</ele>
        <time>2012-03-23T12:07:15Z</time>
      </trkpt>
      <trkpt lat="42.87793" lon="-0.39545">
        <ele>1264.751709</ele>
        <time>2012-03-23T12:07:18Z</time>
      </trkpt>
      <trkpt lat="42.87778" lon="-0.39536">
        <ele>1260.906494</ele>
        <time>2012-03-23T12:07:34Z</time>
      </trkpt>
      <trkpt lat="42.87763" lon="-0.39526">
        <ele>1259.464355</ele>
        <time>2012-03-23T12:07:50Z</time>
      </trkpt>
      <trkpt lat="42.87746" lon="-0.39509">
        <ele>1257.541748</ele>
        <time>2012-03-23T12:08:08Z</time>
      </trkpt>
      <trkpt lat="42.87737" lon="-0.39505">
        <ele>1257.061035</ele>
        <time>2012-03-23T12:08:26Z</time>
      </trkpt>
      <trkpt lat="42.87733" lon="-0.39505">
        <ele>1257.541748</ele>
        <time>2012-03-23T12:08:39Z</time>
      </trkpt>
      <trkpt lat="42.87733" lon="-0.39506">
        <ele>1257.061035</ele>
        <time>2012-03-23T12:08:46Z</time>
      </trkpt>
      <trkpt lat="42.87749" lon="-0.39512">
        <ele>1257.541748</ele>
        <time>2012-03-23T12:09:02Z</time>
      </trkpt>
      <trkpt lat="42.87753" lon="-0.3951">
        <ele>1257.541748</ele>
        <time>2012-03-23T12:09:29Z</time>
      </trkpt>
      <trkpt lat="42.87749" lon="-0.39506">
        <ele>1257.541748</ele>
        <time>2012-03-23T12:10:36Z</time>
      </trkpt>
      <trkpt lat="42.87738" lon="-0.39504">
        <ele>1258.022461</ele>
        <time>2012-03-23T12:10:50Z</time>
      </trkpt>
      <trkpt lat="42.87739" lon="-0.39502">
        <ele>1257.541748</ele>
        <time>2012-03-23T12:11:09Z</time>
      </trkpt>
      <trkpt lat="42.8774" lon="-0.39503">
        <ele>1258.022461</ele>
        <time>2012-03-23T12:11:32Z</time>
      </trkpt>
      <trkpt lat="42.8773" lon="-0.39501">
        <ele>1257.541748</ele>
        <time>2012-03-23T12:11:46Z</time>
      </trkpt>
      <trkpt lat="42.8772" lon="-0.39498">
        <ele>1258.50293</ele>
        <time>2012-03-23T12:12:08Z</time>
      </trkpt>
      <trkpt lat="42.87706" lon="-0.39498">
        <ele>1258.022461</ele>
        <time>2012-03-23T12:12:23Z</time>
      </trkpt>
      <trkpt lat="42.87688" lon="-0.39497">
        <ele>1258.022461</ele>
        <time>2012-03-23T12:12:41Z</time>
      </trkpt>
      <trkpt lat="42.87689" lon="-0.39493">
        <ele>1257.541748</ele>
        <time>2012-03-23T12:13:01Z</time>
      </trkpt>
      <trkpt lat="42.87687" lon="-0.39491">
        <ele>1258.50293</ele>
        <time>2012-03-23T12:13:20Z</time>
      </trkpt>
      <trkpt lat="42.87689" lon="-0.39493">
        <ele>1257.541748</ele>
        <time>2012-03-23T12:13:53Z</time>
      </trkpt>
      <trkpt lat="42.87686" lon="-0.39495">
        <ele>1258.022461</ele>
        <time>2012-03-23T12:14:17Z</time>
      </trkpt>
      <trkpt lat="42.87685" lon="-0.39499">
        <ele>1258.983643</ele>
        <time>2012-03-23T12:15:03Z</time>
      </trkpt>
      <trkpt lat="42.87684" lon="-0.39494">
        <ele>1258.983643</ele>
        <time>2012-03-23T12:15:27Z</time>
      </trkpt>
      <trkpt lat="42.87689" lon="-0.39495">
        <ele>1257.541748</ele>
        <time>2012-03-23T12:16:06Z</time>
      </trkpt>
      <trkpt lat="42.87685" lon="-0.39494">
        <ele>1258.022461</ele>
        <time>2012-03-23T12:16:14Z</time>
      </trkpt>
      <trkpt lat="42.87665" lon="-0.39497">
        <ele>1259.944824</ele>
        <time>2012-03-23T12:16:34Z</time>
      </trkpt>
      <trkpt lat="42.87638" lon="-0.39495">
        <ele>1260.425781</ele>
        <time>2012-03-23T12:16:53Z</time>
      </trkpt>
      <trkpt lat="42.8762" lon="-0.39483">
        <ele>1258.983643</ele>
        <time>2012-03-23T12:17:08Z</time>
      </trkpt>
      <trkpt lat="42.87603" lon="-0.39472">
        <ele>1258.50293</ele>
        <time>2012-03-23T12:17:25Z</time>
      </trkpt>
      <trkpt lat="42.8758" lon="-0.39471">
        <ele>1258.022461</ele>
        <time>2012-03-23T12:17:43Z</time>
      </trkpt>
      <trkpt lat="42.87562" lon="-0.39478">
        <ele>1259.944824</ele>
        <time>2012-03-23T12:17:59Z</time>
      </trkpt>
      <trkpt lat="42.87541" lon="-0.39485">
        <ele>1260.906494</ele>
        <time>2012-03-23T12:18:17Z</time>
      </trkpt>
      <trkpt lat="42.87515" lon="-0.3949">
        <ele>1259.464355</ele>
        <time>2012-03-23T12:18:38Z</time>
      </trkpt>
      <trkpt lat="42.87493" lon="-0.39489">
        <ele>1260.906494</ele>
        <time>2012-03-23T12:18:57Z</time>
      </trkpt>
      <trkpt lat="42.87473" lon="-0.39486">
        <ele>1260.906494</ele>
        <time>2012-03-23T12:19:15Z</time>
      </trkpt>
      <trkpt lat="42.87451" lon="-0.39477">
        <ele>1262.829102</ele>
        <time>2012-03-23T12:19:34Z</time>
      </trkpt>
      <trkpt lat="42.87431" lon="-0.39462">
        <ele>1262.348389</ele>
        <time>2012-03-23T12:19:52Z</time>
      </trkpt>
      <trkpt lat="42.87427" lon="-0.39458">
        <ele>1262.348389</ele>
        <time>2012-03-23T12:19:57Z</time>
      </trkpt>
      <trkpt lat="42.8741" lon="-0.39441">
        <ele>1261.387207</ele>
        <time>2012-03-23T12:20:15Z</time>
      </trkpt>
      <trkpt lat="42.87397" lon="-0.39427">
        <ele>1261.86792</ele>
        <time>2012-03-23T12:20:31Z</time>
      </trkpt>
      <trkpt lat="42.8738" lon="-0.39415">
        <ele>1261.387207</ele>
        <time>2012-03-23T12:20:48Z</time>
      </trkpt>
      <trkpt lat="42.8736" lon="-0.39402">
        <ele>1262.348389</ele>
        <time>2012-03-23T12:21:06Z</time>
      </trkpt>
      <trkpt lat="42.87351" lon="-0.39396">
        <ele>1261.86792</ele>
        <time>2012-03-23T12:21:23Z</time>
      </trkpt>
      <trkpt lat="42.87337" lon="-0.3938">
        <ele>1262.348389</ele>
        <time>2012-03-23T12:21:40Z</time>
      </trkpt>
      <trkpt lat="42.8732" lon="-0.39362">
        <ele>1260.906494</ele>
        <time>2012-03-23T12:21:58Z</time>
      </trkpt>
      <trkpt lat="42.87299" lon="-0.39349">
        <ele>1259.944824</ele>
        <time>2012-03-23T12:22:17Z</time>
      </trkpt>
      <trkpt lat="42.87285" lon="-0.3934">
        <ele>1261.86792</ele>
        <time>2012-03-23T12:22:31Z</time>
      </trkpt>
      <trkpt lat="42.8727" lon="-0.3933">
        <ele>1261.86792</ele>
        <time>2012-03-23T12:22:45Z</time>
      </trkpt>
      <trkpt lat="42.87267" lon="-0.39329">
        <ele>1263.309814</ele>
        <time>2012-03-23T12:22:49Z</time>
      </trkpt>
      <trkpt lat="42.8725" lon="-0.39334">
        <ele>1263.790283</ele>
        <time>2012-03-23T12:23:06Z</time>
      </trkpt>
      <trkpt lat="42.87248" lon="-0.39336">
        <ele>1263.790283</ele>
        <time>2012-03-23T12:23:25Z</time>
      </trkpt>
      <trkpt lat="42.8725" lon="-0.3934">
        <ele>1264.270996</ele>
        <time>2012-03-23T12:23:46Z</time>
      </trkpt>
      <trkpt lat="42.87253" lon="-0.3934">
        <ele>1263.309814</ele>
        <time>2012-03-23T12:23:49Z</time>
      </trkpt>
      <trkpt lat="42.87265" lon="-0.39333">
        <ele>1262.348389</ele>
        <time>2012-03-23T12:24:04Z</time>
      </trkpt>
      <trkpt lat="42.87271" lon="-0.39334">
        <ele>1261.86792</ele>
        <time>2012-03-23T12:24:21Z</time>
      </trkpt>
      <trkpt lat="42.87273" lon="-0.39334">
        <ele>1262.829102</ele>
        <time>2012-03-23T12:24:33Z</time>
      </trkpt>
      <trkpt lat="42.87268" lon="-0.39331">
        <ele>1262.829102</ele>
        <time>2012-03-23T12:24:41Z</time>
      </trkpt>
      <trkpt lat="42.87266" lon="-0.39332">
        <ele>1262.829102</ele>
        <time>2012-03-23T12:24:43Z</time>
      </trkpt>
      <trkpt lat="42.87254" lon="-0.3934">
        <ele>1264.270996</ele>
        <time>2012-03-23T12:25:03Z</time>
      </trkpt>
      <trkpt lat="42.87253" lon="-0.39341">
        <ele>1264.270996</ele>
        <time>2012-03-23T12:25:25Z</time>
      </trkpt>
      <trkpt lat="42.87251" lon="-0.39338">
        <ele>1263.309814</ele>
        <time>2012-03-23T12:25:50Z</time>
      </trkpt>
      <trkpt lat="42.87251" lon="-0.39338">
        <ele>1263.309814</ele>
        <time>2012-03-23T12:25:51Z</time>
      </trkpt>
      <trkpt lat="42.87252" lon="-0.3934">
        <ele>1264.751709</ele>
        <time>2012-03-23T12:26:13Z</time>
      </trkpt>
      <trkpt lat="42.8725" lon="-0.39339">
        <ele>1263.790283</ele>
        <time>2012-03-23T12:26:58Z</time>
      </trkpt>
      <trkpt lat="42.87253" lon="-0.39338">
        <ele>1263.309814</ele>
        <time>2012-03-23T12:27:31Z</time>
      </trkpt>
      <trkpt lat="42.87254" lon="-0.39338">
        <ele>1262.829102</ele>
        <time>2012-03-23T12:27:56Z</time>
      </trkpt>
      <trkpt lat="42.87253" lon="-0.39338">
        <ele>1262.829102</ele>
        <time>2012-03-23T12:28:14Z</time>
      </trkpt>
      <trkpt lat="42.87245" lon="-0.39334">
        <ele>1262.348389</ele>
        <time>2012-03-23T12:28:22Z</time>
      </trkpt>
      <trkpt lat="42.87242" lon="-0.39334">
        <ele>1261.86792</ele>
        <time>2012-03-23T12:28:24Z</time>
      </trkpt>
      <trkpt lat="42.87225" lon="-0.39328">
        <ele>1259.464355</ele>
        <time>2012-03-23T12:28:41Z</time>
      </trkpt>
      <trkpt lat="42.8721" lon="-0.39326">
        <ele>1259.464355</ele>
        <time>2012-03-23T12:28:54Z</time>
      </trkpt>
      <trkpt lat="42.87194" lon="-0.39324">
        <ele>1261.387207</ele>
        <time>2012-03-23T12:29:09Z</time>
      </trkpt>
      <trkpt lat="42.87191" lon="-0.39322">
        <ele>1262.348389</ele>
        <time>2012-03-23T12:29:12Z</time>
      </trkpt>
      <trkpt lat="42.87182" lon="-0.39317">
        <ele>1261.86792</ele>
        <time>2012-03-23T12:29:21Z</time>
      </trkpt>
      <trkpt lat="42.8718" lon="-0.39316">
        <ele>1261.86792</ele>
        <time>2012-03-23T12:29:23Z</time>
      </trkpt>
      <trkpt lat="42.87171" lon="-0.39314">
        <ele>1262.829102</ele>
        <time>2012-03-23T12:29:36Z</time>
      </trkpt>
      <trkpt lat="42.87154" lon="-0.39315">
        <ele>1259.464355</ele>
        <time>2012-03-23T12:29:52Z</time>
      </trkpt>
      <trkpt lat="42.8713" lon="-0.39303">
        <ele>1258.983643</ele>
        <time>2012-03-23T12:30:13Z</time>
      </trkpt>
      <trkpt lat="42.87115" lon="-0.39291">
        <ele>1258.50293</ele>
        <time>2012-03-23T12:30:28Z</time>
      </trkpt>
      <trkpt lat="42.87096" lon="-0.3928">
        <ele>1258.50293</ele>
        <time>2012-03-23T12:30:44Z</time>
      </trkpt>
      <trkpt lat="42.8707" lon="-0.39277">
        <ele>1256.580322</ele>
        <time>2012-03-23T12:31:05Z</time>
      </trkpt>
      <trkpt lat="42.87046" lon="-0.39281">
        <ele>1257.061035</ele>
        <time>2012-03-23T12:31:24Z</time>
      </trkpt>
      <trkpt lat="42.87044" lon="-0.39281">
        <ele>1257.541748</ele>
        <time>2012-03-23T12:31:26Z</time>
      </trkpt>
      <trkpt lat="42.87039" lon="-0.39283">
        <ele>1257.061035</ele>
        <time>2012-03-23T12:31:30Z</time>
      </trkpt>
      <trkpt lat="42.87021" lon="-0.3929">
        <ele>1257.061035</ele>
        <time>2012-03-23T12:31:47Z</time>
      </trkpt>
      <trkpt lat="42.87014" lon="-0.39293">
        <ele>1257.541748</ele>
        <time>2012-03-23T12:31:53Z</time>
      </trkpt>
      <trkpt lat="42.86997" lon="-0.39295">
        <ele>1257.541748</ele>
        <time>2012-03-23T12:32:06Z</time>
      </trkpt>
      <trkpt lat="42.86974" lon="-0.39281">
        <ele>1256.580322</ele>
        <time>2012-03-23T12:32:25Z</time>
      </trkpt>
      <trkpt lat="42.86953" lon="-0.39285">
        <ele>1255.138428</ele>
        <time>2012-03-23T12:32:42Z</time>
      </trkpt>
      <trkpt lat="42.86932" lon="-0.39297">
        <ele>1256.580322</ele>
        <time>2012-03-23T12:33:02Z</time>
      </trkpt>
      <trkpt lat="42.86915" lon="-0.39306">
        <ele>1256.580322</ele>
        <time>2012-03-23T12:33:20Z</time>
      </trkpt>
      <trkpt lat="42.86892" lon="-0.39312">
        <ele>1256.580322</ele>
        <time>2012-03-23T12:33:40Z</time>
      </trkpt>
      <trkpt lat="42.86871" lon="-0.39316">
        <ele>1257.541748</ele>
        <time>2012-03-23T12:33:58Z</time>
      </trkpt>
      <trkpt lat="42.86849" lon="-0.39313">
        <ele>1259.464355</ele>
        <time>2012-03-23T12:34:16Z</time>
      </trkpt>
      <trkpt lat="42.86825" lon="-0.3931">
        <ele>1260.906494</ele>
        <time>2012-03-23T12:34:36Z</time>
      </trkpt>
      <trkpt lat="42.86817" lon="-0.39311">
        <ele>1263.790283</ele>
        <time>2012-03-23T12:34:50Z</time>
      </trkpt>
      <trkpt lat="42.86812" lon="-0.39313">
        <ele>1262.829102</ele>
        <time>2012-03-23T12:35:10Z</time>
      </trkpt>
      <trkpt lat="42.86809" lon="-0.39315">
        <ele>1262.348389</ele>
        <time>2012-03-23T12:35:23Z</time>
      </trkpt>
      <trkpt lat="42.86809" lon="-0.39314">
        <ele>1263.790283</ele>
        <time>2012-03-23T12:35:26Z</time>
      </trkpt>
      <trkpt lat="42.86806" lon="-0.39314">
        <ele>1264.751709</ele>
        <time>2012-03-23T12:35:45Z</time>
      </trkpt>
      <trkpt lat="42.86801" lon="-0.39315">
        <ele>1263.790283</ele>
        <time>2012-03-23T12:35:58Z</time>
      </trkpt>
      <trkpt lat="42.86798" lon="-0.39313">
        <ele>1262.829102</ele>
        <time>2012-03-23T12:36:08Z</time>
      </trkpt>
      <trkpt lat="42.86802" lon="-0.39313">
        <ele>1262.829102</ele>
        <time>2012-03-23T12:36:13Z</time>
      </trkpt>
      <trkpt lat="42.86805" lon="-0.39318">
        <ele>1262.829102</ele>
        <time>2012-03-23T12:36:31Z</time>
      </trkpt>
      <trkpt lat="42.86806" lon="-0.39315">
        <ele>1262.829102</ele>
        <time>2012-03-23T12:37:39Z</time>
      </trkpt>
      <trkpt lat="42.86805" lon="-0.39314">
        <ele>1264.270996</ele>
        <time>2012-03-23T12:38:30Z</time>
      </trkpt>
      <trkpt lat="42.86809" lon="-0.39311">
        <ele>1263.309814</ele>
        <time>2012-03-23T12:38:43Z</time>
      </trkpt>
      <trkpt lat="42.86807" lon="-0.3931">
        <ele>1263.309814</ele>
        <time>2012-03-23T12:38:58Z</time>
      </trkpt>
      <trkpt lat="42.86802" lon="-0.39311">
        <ele>1263.309814</ele>
        <time>2012-03-23T12:39:10Z</time>
      </trkpt>
      <trkpt lat="42.86805" lon="-0.39305">
        <ele>1263.309814</ele>
        <time>2012-03-23T12:39:16Z</time>
      </trkpt>
      <trkpt lat="42.86808" lon="-0.39298">
        <ele>1263.309814</ele>
        <time>2012-03-23T12:39:33Z</time>
      </trkpt>
      <trkpt lat="42.86807" lon="-0.39303">
        <ele>1263.309814</ele>
        <time>2012-03-23T12:39:55Z</time>
      </trkpt>
      <trkpt lat="42.86805" lon="-0.39318">
        <ele>1263.790283</ele>
        <time>2012-03-23T12:40:10Z</time>
      </trkpt>
      <trkpt lat="42.86808" lon="-0.39315">
        <ele>1262.829102</ele>
        <time>2012-03-23T12:40:33Z</time>
      </trkpt>
      <trkpt lat="42.86812" lon="-0.39313">
        <ele>1262.348389</ele>
        <time>2012-03-23T12:40:47Z</time>
      </trkpt>
      <trkpt lat="42.86808" lon="-0.3931">
        <ele>1261.86792</ele>
        <time>2012-03-23T12:41:09Z</time>
      </trkpt>
      <trkpt lat="42.86805" lon="-0.39315">
        <ele>1262.348389</ele>
        <time>2012-03-23T12:41:23Z</time>
      </trkpt>
      <trkpt lat="42.86805" lon="-0.39316">
        <ele>1262.829102</ele>
        <time>2012-03-23T12:41:47Z</time>
      </trkpt>
      <trkpt lat="42.86803" lon="-0.39319">
        <ele>1262.348389</ele>
        <time>2012-03-23T12:42:06Z</time>
      </trkpt>
      <trkpt lat="42.86808" lon="-0.39315">
        <ele>1262.829102</ele>
        <time>2012-03-23T12:42:35Z</time>
      </trkpt>
      <trkpt lat="42.86808" lon="-0.39316">
        <ele>1262.829102</ele>
        <time>2012-03-23T12:42:51Z</time>
      </trkpt>
      <trkpt lat="42.86807" lon="-0.39316">
        <ele>1262.348389</ele>
        <time>2012-03-23T12:43:14Z</time>
      </trkpt>
      <trkpt lat="42.86806" lon="-0.39318">
        <ele>1262.829102</ele>
        <time>2012-03-23T12:43:32Z</time>
      </trkpt>
      <trkpt lat="42.86806" lon="-0.39317">
        <ele>1262.829102</ele>
        <time>2012-03-23T12:43:47Z</time>
      </trkpt>
      <trkpt lat="42.86803" lon="-0.39317">
        <ele>1262.829102</ele>
        <time>2012-03-23T12:44:00Z</time>
      </trkpt>
      <trkpt lat="42.86807" lon="-0.39315">
        <ele>1262.829102</ele>
        <time>2012-03-23T12:44:10Z</time>
      </trkpt>
      <trkpt lat="42.86811" lon="-0.39316">
        <ele>1262.348389</ele>
        <time>2012-03-23T12:44:54Z</time>
      </trkpt>
      <trkpt lat="42.86807" lon="-0.39315">
        <ele>1263.309814</ele>
        <time>2012-03-23T12:45:25Z</time>
      </trkpt>
      <trkpt lat="42.86803" lon="-0.39311">
        <ele>1262.829102</ele>
        <time>2012-03-23T12:46:02Z</time>
      </trkpt>
      <trkpt lat="42.86801" lon="-0.39315">
        <ele>1262.348389</ele>
        <time>2012-03-23T12:46:12Z</time>
      </trkpt>
      <trkpt lat="42.86802" lon="-0.39316">
        <ele>1261.86792</ele>
        <time>2012-03-23T12:46:38Z</time>
      </trkpt>
      <trkpt lat="42.86806" lon="-0.39317">
        <ele>1262.348389</ele>
        <time>2012-03-23T12:47:19Z</time>
      </trkpt>
      <trkpt lat="42.8681" lon="-0.39314">
        <ele>1261.387207</ele>
        <time>2012-03-23T12:47:39Z</time>
      </trkpt>
      <trkpt lat="42.86809" lon="-0.39315">
        <ele>1261.86792</ele>
        <time>2012-03-23T12:47:50Z</time>
      </trkpt>
      <trkpt lat="42.86807" lon="-0.39314">
        <ele>1261.387207</ele>
        <time>2012-03-23T12:48:18Z</time>
      </trkpt>
      <trkpt lat="42.86803" lon="-0.39316">
        <ele>1261.387207</ele>
        <time>2012-03-23T12:48:31Z</time>
      </trkpt>
      <trkpt lat="42.86803" lon="-0.39296">
        <ele>1262.348389</ele>
        <time>2012-03-23T12:48:41Z</time>
      </trkpt>
      <trkpt lat="42.86807" lon="-0.39284">
        <ele>1262.829102</ele>
        <time>2012-03-23T12:48:50Z</time>
      </trkpt>
      <trkpt lat="42.86807" lon="-0.39277">
        <ele>1264.270996</ele>
        <time>2012-03-23T12:49:03Z</time>
      </trkpt>
      <trkpt lat="42.86808" lon="-0.39277">
        <ele>1264.270996</ele>
        <time>2012-03-23T12:49:05Z</time>
      </trkpt>
      <trkpt lat="42.86819" lon="-0.39273">
        <ele>1264.751709</ele>
        <time>2012-03-23T12:49:20Z</time>
      </trkpt>
      <trkpt lat="42.86819" lon="-0.39276">
        <ele>1265.232422</ele>
        <time>2012-03-23T12:50:27Z</time>
      </trkpt>
      <trkpt lat="42.8681" lon="-0.39278">
        <ele>1265.713135</ele>
        <time>2012-03-23T12:50:55Z</time>
      </trkpt>
      <trkpt lat="42.86793" lon="-0.39282">
        <ele>1266.674316</ele>
        <time>2012-03-23T12:51:14Z</time>
      </trkpt>
      <trkpt lat="42.86778" lon="-0.39287">
        <ele>1267.635498</ele>
        <time>2012-03-23T12:51:28Z</time>
      </trkpt>
      <trkpt lat="42.86767" lon="-0.3929">
        <ele>1268.116211</ele>
        <time>2012-03-23T12:51:38Z</time>
      </trkpt>
      <trkpt lat="42.86751" lon="-0.39293">
        <ele>1269.55835</ele>
        <time>2012-03-23T12:51:54Z</time>
      </trkpt>
      <trkpt lat="42.86747" lon="-0.39293">
        <ele>1271.480713</ele>
        <time>2012-03-23T12:51:58Z</time>
      </trkpt>
      <trkpt lat="42.86742" lon="-0.39292">
        <ele>1271.000244</ele>
        <time>2012-03-23T12:52:03Z</time>
      </trkpt>
      <trkpt lat="42.8672" lon="-0.39298">
        <ele>1271.961426</ele>
        <time>2012-03-23T12:52:23Z</time>
      </trkpt>
      <trkpt lat="42.86713" lon="-0.39301">
        <ele>1272.442139</ele>
        <time>2012-03-23T12:52:29Z</time>
      </trkpt>
      <trkpt lat="42.86708" lon="-0.39305">
        <ele>1273.403564</ele>
        <time>2012-03-23T12:52:36Z</time>
      </trkpt>
      <trkpt lat="42.86705" lon="-0.39307">
        <ele>1272.922852</ele>
        <time>2012-03-23T12:52:39Z</time>
      </trkpt>
      <trkpt lat="42.86701" lon="-0.39309">
        <ele>1273.884033</ele>
        <time>2012-03-23T12:52:59Z</time>
      </trkpt>
      <trkpt lat="42.867" lon="-0.39308">
        <ele>1273.884033</ele>
        <time>2012-03-23T12:53:28Z</time>
      </trkpt>
      <trkpt lat="42.86697" lon="-0.3931">
        <ele>1273.403564</ele>
        <time>2012-03-23T12:54:00Z</time>
      </trkpt>
      <trkpt lat="42.86681" lon="-0.39304">
        <ele>1276.287598</ele>
        <time>2012-03-23T12:54:17Z</time>
      </trkpt>
      <trkpt lat="42.86666" lon="-0.39297">
        <ele>1276.768311</ele>
        <time>2012-03-23T12:54:32Z</time>
      </trkpt>
      <trkpt lat="42.86655" lon="-0.39294">
        <ele>1278.210205</ele>
        <time>2012-03-23T12:54:40Z</time>
      </trkpt>
      <trkpt lat="42.86639" lon="-0.39285">
        <ele>1278.210205</ele>
        <time>2012-03-23T12:54:55Z</time>
      </trkpt>
      <trkpt lat="42.86627" lon="-0.39274">
        <ele>1279.6521</ele>
        <time>2012-03-23T12:55:07Z</time>
      </trkpt>
      <trkpt lat="42.86621" lon="-0.39271">
        <ele>1280.132812</ele>
        <time>2012-03-23T12:55:12Z</time>
      </trkpt>
      <trkpt lat="42.86598" lon="-0.39258">
        <ele>1280.613525</ele>
        <time>2012-03-23T12:55:32Z</time>
      </trkpt>
      <trkpt lat="42.86581" lon="-0.39251">
        <ele>1281.574707</ele>
        <time>2012-03-23T12:55:46Z</time>
      </trkpt>
      <trkpt lat="42.86561" lon="-0.39244">
        <ele>1283.978027</ele>
        <time>2012-03-23T12:56:04Z</time>
      </trkpt>
      <trkpt lat="42.86557" lon="-0.39241">
        <ele>1283.016602</ele>
        <time>2012-03-23T12:56:07Z</time>
      </trkpt>
      <trkpt lat="42.86538" lon="-0.39218">
        <ele>1283.016602</ele>
        <time>2012-03-23T12:56:28Z</time>
      </trkpt>
      <trkpt lat="42.86522" lon="-0.39205">
        <ele>1283.016602</ele>
        <time>2012-03-23T12:56:44Z</time>
      </trkpt>
      <trkpt lat="42.86506" lon="-0.39194">
        <ele>1282.536133</ele>
        <time>2012-03-23T12:56:57Z</time>
      </trkpt>
      <trkpt lat="42.86495" lon="-0.39189">
        <ele>1283.016602</ele>
        <time>2012-03-23T12:57:08Z</time>
      </trkpt>
      <trkpt lat="42.86484" lon="-0.39181">
        <ele>1282.536133</ele>
        <time>2012-03-23T12:57:18Z</time>
      </trkpt>
      <trkpt lat="42.86473" lon="-0.39165">
        <ele>1282.536133</ele>
        <time>2012-03-23T12:57:31Z</time>
      </trkpt>
      <trkpt lat="42.86466" lon="-0.39152">
        <ele>1282.536133</ele>
        <time>2012-03-23T12:57:46Z</time>
      </trkpt>
      <trkpt lat="42.86462" lon="-0.39148">
        <ele>1282.536133</ele>
        <time>2012-03-23T12:57:50Z</time>
      </trkpt>
      <trkpt lat="42.86459" lon="-0.39144">
        <ele>1282.05542</ele>
        <time>2012-03-23T12:57:54Z</time>
      </trkpt>
      <trkpt lat="42.8645" lon="-0.3914">
        <ele>1283.016602</ele>
        <time>2012-03-23T12:58:01Z</time>
      </trkpt>
      <trkpt lat="42.86419" lon="-0.39137">
        <ele>1281.094238</ele>
        <time>2012-03-23T12:58:22Z</time>
      </trkpt>
      <trkpt lat="42.86398" lon="-0.39134">
        <ele>1281.094238</ele>
        <time>2012-03-23T12:58:38Z</time>
      </trkpt>
      <trkpt lat="42.86388" lon="-0.39128">
        <ele>1281.574707</ele>
        <time>2012-03-23T12:58:50Z</time>
      </trkpt>
      <trkpt lat="42.8638" lon="-0.39129">
        <ele>1280.613525</ele>
        <time>2012-03-23T12:58:57Z</time>
      </trkpt>
      <trkpt lat="42.86366" lon="-0.39126">
        <ele>1279.171387</ele>
        <time>2012-03-23T12:59:09Z</time>
      </trkpt>
      <trkpt lat="42.86339" lon="-0.39129">
        <ele>1276.768311</ele>
        <time>2012-03-23T12:59:31Z</time>
      </trkpt>
      <trkpt lat="42.86329" lon="-0.39129">
        <ele>1277.249023</ele>
        <time>2012-03-23T12:59:39Z</time>
      </trkpt>
      <trkpt lat="42.8631" lon="-0.39134">
        <ele>1275.806641</ele>
        <time>2012-03-23T12:59:55Z</time>
      </trkpt>
      <trkpt lat="42.86301" lon="-0.39158">
        <ele>1274.364746</ele>
        <time>2012-03-23T13:00:11Z</time>
      </trkpt>
      <trkpt lat="42.86303" lon="-0.39165">
        <ele>1274.364746</ele>
        <time>2012-03-23T13:00:16Z</time>
      </trkpt>
      <trkpt lat="42.8632" lon="-0.3917">
        <ele>1271.480713</ele>
        <time>2012-03-23T13:00:34Z</time>
      </trkpt>
      <trkpt lat="42.86324" lon="-0.3917">
        <ele>1271.000244</ele>
        <time>2012-03-23T13:00:41Z</time>
      </trkpt>
      <trkpt lat="42.86326" lon="-0.39178">
        <ele>1269.077637</ele>
        <time>2012-03-23T13:01:00Z</time>
      </trkpt>
      <trkpt lat="42.8633" lon="-0.39181">
        <ele>1270.038818</ele>
        <time>2012-03-23T13:01:17Z</time>
      </trkpt>
      <trkpt lat="42.86331" lon="-0.39183">
        <ele>1270.038818</ele>
        <time>2012-03-23T13:01:19Z</time>
      </trkpt>
      <trkpt lat="42.86337" lon="-0.39196">
        <ele>1268.596924</ele>
        <time>2012-03-23T13:01:36Z</time>
      </trkpt>
      <trkpt lat="42.86337" lon="-0.39194">
        <ele>1269.55835</ele>
        <time>2012-03-23T13:01:43Z</time>
      </trkpt>
      <trkpt lat="42.86336" lon="-0.39195">
        <ele>1268.596924</ele>
        <time>2012-03-23T13:02:06Z</time>
      </trkpt>
      <trkpt lat="42.86336" lon="-0.39193">
        <ele>1268.596924</ele>
        <time>2012-03-23T13:02:28Z</time>
      </trkpt>
      <trkpt lat="42.86336" lon="-0.39199">
        <ele>1267.635498</ele>
        <time>2012-03-23T13:03:43Z</time>
      </trkpt>
      <trkpt lat="42.86341" lon="-0.39202">
        <ele>1269.077637</ele>
        <time>2012-03-23T13:05:04Z</time>
      </trkpt>
      <trkpt lat="42.86346" lon="-0.39218">
        <ele>1268.596924</ele>
        <time>2012-03-23T13:05:19Z</time>
      </trkpt>
      <trkpt lat="42.86346" lon="-0.39223">
        <ele>1268.116211</ele>
        <time>2012-03-23T13:05:24Z</time>
      </trkpt>
      <trkpt lat="42.86335" lon="-0.39228">
        <ele>1269.55835</ele>
        <time>2012-03-23T13:05:38Z</time>
      </trkpt>
      <trkpt lat="42.86326" lon="-0.39226">
        <ele>1271.000244</ele>
        <time>2012-03-23T13:05:55Z</time>
      </trkpt>
      <trkpt lat="42.86338" lon="-0.39228">
        <ele>1269.55835</ele>
        <time>2012-03-23T13:06:09Z</time>
      </trkpt>
      <trkpt lat="42.86344" lon="-0.39229">
        <ele>1268.116211</ele>
        <time>2012-03-23T13:06:15Z</time>
      </trkpt>
      <trkpt lat="42.86352" lon="-0.39232">
        <ele>1267.635498</ele>
        <time>2012-03-23T13:06:24Z</time>
      </trkpt>
      <trkpt lat="42.86352" lon="-0.39233">
        <ele>1266.193604</ele>
        <time>2012-03-23T13:06:29Z</time>
      </trkpt>
      <trkpt lat="42.86344" lon="-0.39218">
        <ele>1268.116211</ele>
        <time>2012-03-23T13:06:47Z</time>
      </trkpt>
      <trkpt lat="42.86343" lon="-0.39213">
        <ele>1267.635498</ele>
        <time>2012-03-23T13:07:08Z</time>
      </trkpt>
      <trkpt lat="42.86341" lon="-0.39218">
        <ele>1266.674316</ele>
        <time>2012-03-23T13:07:32Z</time>
      </trkpt>
      <trkpt lat="42.86339" lon="-0.39222">
        <ele>1267.155029</ele>
        <time>2012-03-23T13:08:02Z</time>
      </trkpt>
      <trkpt lat="42.8634" lon="-0.3922">
        <ele>1268.116211</ele>
        <time>2012-03-23T13:08:30Z</time>
      </trkpt>
      <trkpt lat="42.86337" lon="-0.39221">
        <ele>1267.635498</ele>
        <time>2012-03-23T13:08:47Z</time>
      </trkpt>
      <trkpt lat="42.86339" lon="-0.39223">
        <ele>1268.596924</ele>
        <time>2012-03-23T13:09:13Z</time>
      </trkpt>
    </trkseg>
  </trk>
</gpx>